<?xml version="1.0" encoding="UTF-8" standalone="no" ?>
<gpx xmlns="http://www.topografix.com/GPX/1/1" xmlns:xsi="http://www.w3.org/2001/XMLSchema-instance" xsi:schemaLocation="http://www.topografix.com/GPX/1/1 http://www.topografix.com/GPX/1/1/gpx.xsd" version="1.1" creator="VisuGPX - https://www.visugpx.com">
  <metadata>
    <name>ChapelleE_VerriereRaguenetCensErdre_20km</name>
    <desc><![CDATA[Reconnaissance du 28/03/24 + variante avec modifs]]></desc>
  </metadata>
  <trk>
    <name><![CDATA[VarianteHiver22km20427700]]></name>
    <desc><![CDATA[Modifications suite Reco : Détour par ZA Ragon car Portail Village de la rue /Cimetière parfois fermé et sentier boueux. Bords du Cens entre passerelle de la Perche et pont du Cens inondée en hiver donc détour par avenue Félix Vincent. Et suppression du A/R pont de la Motte Rouge]]></desc>
    <extensions>
      <line xmlns="http://www.topografix.com/GPX/gpx_style/0/2">
        <color>400040</color>
        <width>4</width>
      </line>
    </extensions>
    <trkseg>
      <trkpt lat="47.26906" lon="-1.54846">
        <ele>26</ele>
        <time>2024-03-28T07:03:14Z</time>
      </trkpt>
      <trkpt lat="47.26915" lon="-1.54873">
        <ele>26</ele>
        <time>2024-03-28T07:03:30Z</time>
      </trkpt>
      <trkpt lat="47.26921" lon="-1.549">
        <ele>26.97</ele>
        <time>2024-03-28T07:03:42Z</time>
      </trkpt>
      <trkpt lat="47.26925" lon="-1.54928">
        <ele>26.09</ele>
        <time>2024-03-28T07:03:54Z</time>
      </trkpt>
      <trkpt lat="47.26918" lon="-1.5496">
        <ele>26</ele>
        <time>2024-03-28T07:04:10Z</time>
      </trkpt>
      <trkpt lat="47.26918" lon="-1.54986">
        <ele>25.87</ele>
        <time>2024-03-28T07:04:22Z</time>
      </trkpt>
      <trkpt lat="47.26924" lon="-1.55012">
        <ele>26.91</ele>
        <time>2024-03-28T07:04:34Z</time>
      </trkpt>
      <trkpt lat="47.26928" lon="-1.55042">
        <ele>27</ele>
        <time>2024-03-28T07:04:50Z</time>
      </trkpt>
      <trkpt lat="47.26935" lon="-1.55071">
        <ele>27</ele>
        <time>2024-03-28T07:05:06Z</time>
      </trkpt>
      <trkpt lat="47.26951" lon="-1.55094">
        <ele>28.95</ele>
        <time>2024-03-28T07:05:22Z</time>
      </trkpt>
      <trkpt lat="47.26969" lon="-1.55093">
        <ele>29</ele>
        <time>2024-03-28T07:05:34Z</time>
      </trkpt>
      <trkpt lat="47.26994" lon="-1.55092">
        <ele>29</ele>
        <time>2024-03-28T07:05:50Z</time>
      </trkpt>
      <trkpt lat="47.27016" lon="-1.55088">
        <ele>29.97</ele>
        <time>2024-03-28T07:06:06Z</time>
      </trkpt>
      <trkpt lat="47.27034" lon="-1.55085">
        <ele>30</ele>
        <time>2024-03-28T07:06:18Z</time>
      </trkpt>
      <trkpt lat="47.27057" lon="-1.55081">
        <ele>28.6</ele>
        <time>2024-03-28T07:06:34Z</time>
      </trkpt>
      <trkpt lat="47.27076" lon="-1.55089">
        <ele>29.84</ele>
        <time>2024-03-28T07:06:46Z</time>
      </trkpt>
      <trkpt lat="47.2709" lon="-1.55109">
        <ele>30.91</ele>
        <time>2024-03-28T07:06:58Z</time>
      </trkpt>
      <trkpt lat="47.2711" lon="-1.55118">
        <ele>31</ele>
        <time>2024-03-28T07:07:14Z</time>
      </trkpt>
      <trkpt lat="47.27131" lon="-1.55126">
        <ele>31</ele>
        <time>2024-03-28T07:07:30Z</time>
      </trkpt>
      <trkpt lat="47.2715" lon="-1.55129">
        <ele>31</ele>
        <time>2024-03-28T07:07:42Z</time>
      </trkpt>
      <trkpt lat="47.27167" lon="-1.55137">
        <ele>33.1</ele>
        <time>2024-03-28T07:07:54Z</time>
      </trkpt>
      <trkpt lat="47.2717" lon="-1.55163">
        <ele>33.98</ele>
        <time>2024-03-28T07:08:06Z</time>
      </trkpt>
      <trkpt lat="47.27189" lon="-1.55163">
        <ele>34</ele>
        <time>2024-03-28T07:08:22Z</time>
      </trkpt>
      <trkpt lat="47.27208" lon="-1.55161">
        <ele>34</ele>
        <time>2024-03-28T07:08:34Z</time>
      </trkpt>
      <trkpt lat="47.27227" lon="-1.55155">
        <ele>34</ele>
        <time>2024-03-28T07:08:46Z</time>
      </trkpt>
      <trkpt lat="47.27245" lon="-1.55146">
        <ele>34</ele>
        <time>2024-03-28T07:08:58Z</time>
      </trkpt>
      <trkpt lat="47.27264" lon="-1.55152">
        <ele>38.87</ele>
        <time>2024-03-28T07:09:14Z</time>
      </trkpt>
      <trkpt lat="47.27288" lon="-1.55147">
        <ele>39</ele>
        <time>2024-03-28T07:09:30Z</time>
      </trkpt>
      <trkpt lat="47.27307" lon="-1.55133">
        <ele>39</ele>
        <time>2024-03-28T07:09:46Z</time>
      </trkpt>
      <trkpt lat="47.27327" lon="-1.55126">
        <ele>39</ele>
        <time>2024-03-28T07:09:58Z</time>
      </trkpt>
      <trkpt lat="47.27348" lon="-1.55119">
        <ele>37.05</ele>
        <time>2024-03-28T07:10:14Z</time>
      </trkpt>
      <trkpt lat="47.27372" lon="-1.55119">
        <ele>37</ele>
        <time>2024-03-28T07:10:30Z</time>
      </trkpt>
      <trkpt lat="47.27389" lon="-1.55131">
        <ele>37</ele>
        <time>2024-03-28T07:10:42Z</time>
      </trkpt>
      <trkpt lat="47.27409" lon="-1.55146">
        <ele>37</ele>
        <time>2024-03-28T07:10:58Z</time>
      </trkpt>
      <trkpt lat="47.27429" lon="-1.55164">
        <ele>37</ele>
        <time>2024-03-28T07:11:14Z</time>
      </trkpt>
      <trkpt lat="47.27446" lon="-1.55181">
        <ele>37.99</ele>
        <time>2024-03-28T07:11:30Z</time>
      </trkpt>
      <trkpt lat="47.27439" lon="-1.55214">
        <ele>38</ele>
        <time>2024-03-28T07:11:46Z</time>
      </trkpt>
      <trkpt lat="47.27444" lon="-1.55242">
        <ele>38</ele>
        <time>2024-03-28T07:11:58Z</time>
      </trkpt>
      <trkpt lat="47.27445" lon="-1.5527">
        <ele>38</ele>
        <time>2024-03-28T07:12:10Z</time>
      </trkpt>
      <trkpt lat="47.27442" lon="-1.55297">
        <ele>38</ele>
        <time>2024-03-28T07:12:22Z</time>
      </trkpt>
      <trkpt lat="47.27434" lon="-1.55322">
        <ele>38</ele>
        <time>2024-03-28T07:12:34Z</time>
      </trkpt>
      <trkpt lat="47.27426" lon="-1.55345">
        <ele>37.09</ele>
        <time>2024-03-28T07:12:46Z</time>
      </trkpt>
      <trkpt lat="47.27419" lon="-1.55373">
        <ele>37</ele>
        <time>2024-03-28T07:13:02Z</time>
      </trkpt>
      <trkpt lat="47.27412" lon="-1.55403">
        <ele>36.03</ele>
        <time>2024-03-28T07:13:14Z</time>
      </trkpt>
      <trkpt lat="47.27409" lon="-1.5543">
        <ele>35.09</ele>
        <time>2024-03-28T07:13:26Z</time>
      </trkpt>
      <trkpt lat="47.27406" lon="-1.55463">
        <ele>35</ele>
        <time>2024-03-28T07:13:42Z</time>
      </trkpt>
      <trkpt lat="47.27405" lon="-1.55491">
        <ele>35</ele>
        <time>2024-03-28T07:13:54Z</time>
      </trkpt>
      <trkpt lat="47.27403" lon="-1.55519">
        <ele>34.03</ele>
        <time>2024-03-28T07:14:06Z</time>
      </trkpt>
      <trkpt lat="47.27403" lon="-1.55548">
        <ele>34</ele>
        <time>2024-03-28T07:14:27Z</time>
      </trkpt>
      <trkpt lat="47.27405" lon="-1.55574">
        <ele>34</ele>
        <time>2024-03-28T07:14:39Z</time>
      </trkpt>
      <trkpt lat="47.27409" lon="-1.55602">
        <ele>33.03</ele>
        <time>2024-03-28T07:14:51Z</time>
      </trkpt>
      <trkpt lat="47.2742" lon="-1.55623">
        <ele>34.4</ele>
        <time>2024-03-28T07:15:03Z</time>
      </trkpt>
      <trkpt lat="47.27436" lon="-1.55643">
        <ele>35</ele>
        <time>2024-03-28T07:15:19Z</time>
      </trkpt>
      <trkpt lat="47.2745" lon="-1.55659">
        <ele>35</ele>
        <time>2024-03-28T07:15:31Z</time>
      </trkpt>
      <trkpt lat="47.27458" lon="-1.55683">
        <ele>34.03</ele>
        <time>2024-03-28T07:15:43Z</time>
      </trkpt>
      <trkpt lat="47.27469" lon="-1.55714">
        <ele>34</ele>
        <time>2024-03-28T07:15:59Z</time>
      </trkpt>
      <trkpt lat="47.27477" lon="-1.55738">
        <ele>34</ele>
        <time>2024-03-28T07:16:11Z</time>
      </trkpt>
      <trkpt lat="47.27489" lon="-1.55765">
        <ele>31.08</ele>
        <time>2024-03-28T07:16:27Z</time>
      </trkpt>
      <trkpt lat="47.27501" lon="-1.55786">
        <ele>31</ele>
        <time>2024-03-28T07:16:39Z</time>
      </trkpt>
      <trkpt lat="47.27512" lon="-1.55809">
        <ele>31</ele>
        <time>2024-03-28T07:16:51Z</time>
      </trkpt>
      <trkpt lat="47.27524" lon="-1.55832">
        <ele>31</ele>
        <time>2024-03-28T07:17:03Z</time>
      </trkpt>
      <trkpt lat="47.27535" lon="-1.55863">
        <ele>28.02</ele>
        <time>2024-03-28T07:17:19Z</time>
      </trkpt>
      <trkpt lat="47.27547" lon="-1.55884">
        <ele>28</ele>
        <time>2024-03-28T07:17:31Z</time>
      </trkpt>
      <trkpt lat="47.27557" lon="-1.55911">
        <ele>28</ele>
        <time>2024-03-28T07:17:47Z</time>
      </trkpt>
      <trkpt lat="47.27568" lon="-1.55937">
        <ele>27.03</ele>
        <time>2024-03-28T07:17:59Z</time>
      </trkpt>
      <trkpt lat="47.27576" lon="-1.55962">
        <ele>27</ele>
        <time>2024-03-28T07:18:11Z</time>
      </trkpt>
      <trkpt lat="47.27588" lon="-1.55984">
        <ele>27.91</ele>
        <time>2024-03-28T07:18:23Z</time>
      </trkpt>
      <trkpt lat="47.27602" lon="-1.56002">
        <ele>27.3</ele>
        <time>2024-03-28T07:18:39Z</time>
      </trkpt>
      <trkpt lat="47.27615" lon="-1.56022">
        <ele>27.01</ele>
        <time>2024-03-28T07:18:51Z</time>
      </trkpt>
      <trkpt lat="47.27618" lon="-1.56048">
        <ele>27</ele>
        <time>2024-03-28T07:19:03Z</time>
      </trkpt>
      <trkpt lat="47.27632" lon="-1.56078">
        <ele>27</ele>
        <time>2024-03-28T07:19:19Z</time>
      </trkpt>
      <trkpt lat="47.2765" lon="-1.56097">
        <ele>18.07</ele>
        <time>2024-03-28T07:19:35Z</time>
      </trkpt>
      <trkpt lat="47.27666" lon="-1.56114">
        <ele>18</ele>
        <time>2024-03-28T07:19:47Z</time>
      </trkpt>
      <trkpt lat="47.27683" lon="-1.56124">
        <ele>26.93</ele>
        <time>2024-03-28T07:20:03Z</time>
      </trkpt>
      <trkpt lat="47.27705" lon="-1.56137">
        <ele>27</ele>
        <time>2024-03-28T07:20:19Z</time>
      </trkpt>
      <trkpt lat="47.27723" lon="-1.56144">
        <ele>27</ele>
        <time>2024-03-28T07:20:35Z</time>
      </trkpt>
      <trkpt lat="47.27743" lon="-1.56157">
        <ele>27</ele>
        <time>2024-03-28T07:20:51Z</time>
      </trkpt>
      <trkpt lat="47.27759" lon="-1.56179">
        <ele>29.73</ele>
        <time>2024-03-28T07:21:03Z</time>
      </trkpt>
      <trkpt lat="47.27772" lon="-1.56203">
        <ele>29.99</ele>
        <time>2024-03-28T07:21:15Z</time>
      </trkpt>
      <trkpt lat="47.27782" lon="-1.56233">
        <ele>30</ele>
        <time>2024-03-28T07:21:31Z</time>
      </trkpt>
      <trkpt lat="47.27794" lon="-1.56259">
        <ele>24.54</ele>
        <time>2024-03-28T07:21:47Z</time>
      </trkpt>
      <trkpt lat="47.27809" lon="-1.56285">
        <ele>24</ele>
        <time>2024-03-28T07:22:03Z</time>
      </trkpt>
      <trkpt lat="47.2782" lon="-1.56308">
        <ele>24</ele>
        <time>2024-03-28T07:22:15Z</time>
      </trkpt>
      <trkpt lat="47.27833" lon="-1.56329">
        <ele>24</ele>
        <time>2024-03-28T07:22:31Z</time>
      </trkpt>
      <trkpt lat="47.27847" lon="-1.56345">
        <ele>26.92</ele>
        <time>2024-03-28T07:22:43Z</time>
      </trkpt>
      <trkpt lat="47.27857" lon="-1.56371">
        <ele>27</ele>
        <time>2024-03-28T07:22:55Z</time>
      </trkpt>
      <trkpt lat="47.27861" lon="-1.56407">
        <ele>27</ele>
        <time>2024-03-28T07:23:15Z</time>
      </trkpt>
      <trkpt lat="47.27862" lon="-1.56442">
        <ele>20.19</ele>
        <time>2024-03-28T07:23:27Z</time>
      </trkpt>
      <trkpt lat="47.27863" lon="-1.56479">
        <ele>20</ele>
        <time>2024-03-28T07:23:47Z</time>
      </trkpt>
      <trkpt lat="47.27866" lon="-1.56506">
        <ele>17.2</ele>
        <time>2024-03-28T07:23:59Z</time>
      </trkpt>
      <trkpt lat="47.27879" lon="-1.56534">
        <ele>16.03</ele>
        <time>2024-03-28T07:24:11Z</time>
      </trkpt>
      <trkpt lat="47.27896" lon="-1.56554">
        <ele>16</ele>
        <time>2024-03-28T07:24:27Z</time>
      </trkpt>
      <trkpt lat="47.27909" lon="-1.56574">
        <ele>16</ele>
        <time>2024-03-28T07:24:39Z</time>
      </trkpt>
      <trkpt lat="47.27925" lon="-1.56598">
        <ele>16</ele>
        <time>2024-03-28T07:25:03Z</time>
      </trkpt>
      <trkpt lat="47.27942" lon="-1.56626">
        <ele>16</ele>
        <time>2024-03-28T07:25:15Z</time>
      </trkpt>
      <trkpt lat="47.27948" lon="-1.56651">
        <ele>16</ele>
        <time>2024-03-28T07:25:27Z</time>
      </trkpt>
      <trkpt lat="47.27947" lon="-1.56686">
        <ele>26.7</ele>
        <time>2024-03-28T07:25:43Z</time>
      </trkpt>
      <trkpt lat="47.27926" lon="-1.56675">
        <ele>27</ele>
        <time>2024-03-28T07:26:07Z</time>
      </trkpt>
      <trkpt lat="47.27905" lon="-1.56685">
        <ele>27</ele>
        <time>2024-03-28T07:26:27Z</time>
      </trkpt>
      <trkpt lat="47.27887" lon="-1.56696">
        <ele>27</ele>
        <time>2024-03-28T07:26:39Z</time>
      </trkpt>
      <trkpt lat="47.27867" lon="-1.56714">
        <ele>27</ele>
        <time>2024-03-28T07:27:03Z</time>
      </trkpt>
      <trkpt lat="47.27847" lon="-1.56726">
        <ele>27</ele>
        <time>2024-03-28T07:27:27Z</time>
      </trkpt>
      <trkpt lat="47.27829" lon="-1.56733">
        <ele>27.7</ele>
        <time>2024-03-28T07:27:43Z</time>
      </trkpt>
      <trkpt lat="47.27816" lon="-1.56753">
        <ele>32.2</ele>
        <time>2024-03-28T07:28:07Z</time>
      </trkpt>
      <trkpt lat="47.27798" lon="-1.56774">
        <ele>33.99</ele>
        <time>2024-03-28T07:28:23Z</time>
      </trkpt>
      <trkpt lat="47.27781" lon="-1.56788">
        <ele>34</ele>
        <time>2024-03-28T07:28:39Z</time>
      </trkpt>
      <trkpt lat="47.27761" lon="-1.56805">
        <ele>34</ele>
        <time>2024-03-28T07:28:55Z</time>
      </trkpt>
      <trkpt lat="47.27747" lon="-1.56823">
        <ele>34.7</ele>
        <time>2024-03-28T07:29:11Z</time>
      </trkpt>
      <trkpt lat="47.27732" lon="-1.56841">
        <ele>34.02</ele>
        <time>2024-03-28T07:29:27Z</time>
      </trkpt>
      <trkpt lat="47.27715" lon="-1.56859">
        <ele>34</ele>
        <time>2024-03-28T07:29:39Z</time>
      </trkpt>
      <trkpt lat="47.27698" lon="-1.5688">
        <ele>34</ele>
        <time>2024-03-28T07:29:55Z</time>
      </trkpt>
      <trkpt lat="47.27684" lon="-1.56897">
        <ele>34</ele>
        <time>2024-03-28T07:30:07Z</time>
      </trkpt>
      <trkpt lat="47.27667" lon="-1.56912">
        <ele>34</ele>
        <time>2024-03-28T07:30:23Z</time>
      </trkpt>
      <trkpt lat="47.27651" lon="-1.56932">
        <ele>35.93</ele>
        <time>2024-03-28T07:30:39Z</time>
      </trkpt>
      <trkpt lat="47.27633" lon="-1.56955">
        <ele>36</ele>
        <time>2024-03-28T07:30:55Z</time>
      </trkpt>
      <trkpt lat="47.27615" lon="-1.56976">
        <ele>36</ele>
        <time>2024-03-28T07:31:11Z</time>
      </trkpt>
      <trkpt lat="47.27597" lon="-1.56996">
        <ele>36</ele>
        <time>2024-03-28T07:31:27Z</time>
      </trkpt>
      <trkpt lat="47.27582" lon="-1.57014">
        <ele>39.62</ele>
        <time>2024-03-28T07:31:39Z</time>
      </trkpt>
      <trkpt lat="47.27566" lon="-1.57035">
        <ele>40</ele>
        <time>2024-03-28T07:31:55Z</time>
      </trkpt>
      <trkpt lat="47.2755" lon="-1.57058">
        <ele>40</ele>
        <time>2024-03-28T07:32:11Z</time>
      </trkpt>
      <trkpt lat="47.27536" lon="-1.57079">
        <ele>40</ele>
        <time>2024-03-28T07:32:27Z</time>
      </trkpt>
      <trkpt lat="47.27521" lon="-1.57107">
        <ele>41.98</ele>
        <time>2024-03-28T07:32:43Z</time>
      </trkpt>
      <trkpt lat="47.27503" lon="-1.57128">
        <ele>42</ele>
        <time>2024-03-28T07:32:59Z</time>
      </trkpt>
      <trkpt lat="47.27597" lon="-1.57096">
        <ele>39.2</ele>
        <time>2024-03-28T07:38:19Z</time>
      </trkpt>
      <trkpt lat="47.2767" lon="-1.5716">
        <ele>39.8</ele>
      </trkpt>
      <trkpt lat="47.27795" lon="-1.57199">
        <ele>40.1</ele>
      </trkpt>
      <trkpt lat="47.2776" lon="-1.57675">
        <ele>44.4</ele>
      </trkpt>
      <trkpt lat="47.27824" lon="-1.57813">
        <ele>44.4</ele>
      </trkpt>
      <trkpt lat="47.27658" lon="-1.5798">
        <ele>42.8</ele>
      </trkpt>
      <trkpt lat="47.27536" lon="-1.58478">
        <ele>46.9</ele>
      </trkpt>
      <trkpt lat="47.27911" lon="-1.58611">
        <ele>53</ele>
      </trkpt>
      <trkpt lat="47.27927" lon="-1.58647">
        <ele>52.3</ele>
      </trkpt>
      <trkpt lat="47.28175" lon="-1.58654">
        <ele>50</ele>
      </trkpt>
      <trkpt lat="47.28133" lon="-1.5877">
        <ele>50.2</ele>
      </trkpt>
      <trkpt lat="47.28151" lon="-1.5881">
        <ele>49.8</ele>
      </trkpt>
      <trkpt lat="47.2823" lon="-1.58873">
        <ele>49.1</ele>
      </trkpt>
      <trkpt lat="47.2807" lon="-1.5913">
        <ele>53</ele>
      </trkpt>
      <trkpt lat="47.27993" lon="-1.5904">
        <ele>51.9</ele>
      </trkpt>
      <trkpt lat="47.27927" lon="-1.59025">
        <ele>51.1</ele>
      </trkpt>
      <trkpt lat="47.27933" lon="-1.59027">
        <ele>51</ele>
      </trkpt>
      <trkpt lat="47.27907" lon="-1.59169">
        <ele>50.7</ele>
      </trkpt>
      <trkpt lat="47.27782" lon="-1.59471">
        <ele>50</ele>
      </trkpt>
      <trkpt lat="47.27456" lon="-1.5919">
        <ele>45</ele>
      </trkpt>
      <trkpt lat="47.27408" lon="-1.59345">
        <ele>47.5</ele>
      </trkpt>
      <trkpt lat="47.27278" lon="-1.59215">
        <ele>47</ele>
        <time>2024-03-28T08:23:31Z</time>
      </trkpt>
      <trkpt lat="47.2722" lon="-1.5925">
        <ele>48.69</ele>
        <time>2024-03-28T08:23:59Z</time>
      </trkpt>
      <trkpt lat="47.27224" lon="-1.59278">
        <ele>48.99</ele>
        <time>2024-03-28T08:24:11Z</time>
      </trkpt>
      <trkpt lat="47.27209" lon="-1.593">
        <ele>49</ele>
        <time>2024-03-28T08:24:31Z</time>
      </trkpt>
      <trkpt lat="47.2719" lon="-1.59309">
        <ele>49</ele>
        <time>2024-03-28T08:24:51Z</time>
      </trkpt>
      <trkpt lat="47.27171" lon="-1.59324">
        <ele>49</ele>
        <time>2024-03-28T08:25:07Z</time>
      </trkpt>
      <trkpt lat="47.27149" lon="-1.59339">
        <ele>49.16</ele>
        <time>2024-03-28T08:25:24Z</time>
      </trkpt>
      <trkpt lat="47.27128" lon="-1.59352">
        <ele>49</ele>
        <time>2024-03-28T08:25:40Z</time>
      </trkpt>
      <trkpt lat="47.2711" lon="-1.59364">
        <ele>49</ele>
        <time>2024-03-28T08:25:56Z</time>
      </trkpt>
      <trkpt lat="47.27112" lon="-1.59398">
        <ele>49</ele>
        <time>2024-03-28T08:26:12Z</time>
      </trkpt>
      <trkpt lat="47.27117" lon="-1.59431">
        <ele>49</ele>
        <time>2024-03-28T08:26:28Z</time>
      </trkpt>
      <trkpt lat="47.27121" lon="-1.59462">
        <ele>49</ele>
        <time>2024-03-28T08:26:44Z</time>
      </trkpt>
      <trkpt lat="47.27137" lon="-1.59478">
        <ele>49</ele>
        <time>2024-03-28T08:26:56Z</time>
      </trkpt>
      <trkpt lat="47.27157" lon="-1.59493">
        <ele>49</ele>
        <time>2024-03-28T08:27:12Z</time>
      </trkpt>
      <trkpt lat="47.27178" lon="-1.59506">
        <ele>48.94</ele>
        <time>2024-03-28T08:27:28Z</time>
      </trkpt>
      <trkpt lat="47.2718" lon="-1.5954">
        <ele>49</ele>
        <time>2024-03-28T08:27:44Z</time>
      </trkpt>
      <trkpt lat="47.27176" lon="-1.59568">
        <ele>49</ele>
        <time>2024-03-28T08:28:00Z</time>
      </trkpt>
      <trkpt lat="47.27159" lon="-1.59576">
        <ele>49.99</ele>
        <time>2024-03-28T08:28:20Z</time>
      </trkpt>
      <trkpt lat="47.27156" lon="-1.59605">
        <ele>50.99</ele>
        <time>2024-03-28T08:28:36Z</time>
      </trkpt>
      <trkpt lat="47.27141" lon="-1.59629">
        <ele>51</ele>
        <time>2024-03-28T08:29:00Z</time>
      </trkpt>
      <trkpt lat="47.27121" lon="-1.59641">
        <ele>51</ele>
        <time>2024-03-28T08:29:16Z</time>
      </trkpt>
      <trkpt lat="47.27103" lon="-1.59649">
        <ele>51</ele>
        <time>2024-03-28T08:29:28Z</time>
      </trkpt>
      <trkpt lat="47.27081" lon="-1.59659">
        <ele>50.3</ele>
        <time>2024-03-28T08:29:44Z</time>
      </trkpt>
      <trkpt lat="47.2708" lon="-1.59688">
        <ele>49.03</ele>
        <time>2024-03-28T08:30:00Z</time>
      </trkpt>
      <trkpt lat="47.27086" lon="-1.59713">
        <ele>49.91</ele>
        <time>2024-03-28T08:30:12Z</time>
      </trkpt>
      <trkpt lat="47.27095" lon="-1.59744">
        <ele>50</ele>
        <time>2024-03-28T08:30:28Z</time>
      </trkpt>
      <trkpt lat="47.27103" lon="-1.59774">
        <ele>50.99</ele>
        <time>2024-03-28T08:30:44Z</time>
      </trkpt>
      <trkpt lat="47.27114" lon="-1.59803">
        <ele>51</ele>
        <time>2024-03-28T08:31:00Z</time>
      </trkpt>
      <trkpt lat="47.2712" lon="-1.59828">
        <ele>51</ele>
        <time>2024-03-28T08:31:16Z</time>
      </trkpt>
      <trkpt lat="47.27101" lon="-1.59837">
        <ele>50.3</ele>
        <time>2024-03-28T08:31:29Z</time>
      </trkpt>
      <trkpt lat="47.271" lon="-1.59871">
        <ele>50</ele>
        <time>2024-03-28T08:31:46Z</time>
      </trkpt>
      <trkpt lat="47.27102" lon="-1.59898">
        <ele>50</ele>
        <time>2024-03-28T08:31:58Z</time>
      </trkpt>
      <trkpt lat="47.27103" lon="-1.5993">
        <ele>49.09</ele>
        <time>2024-03-28T08:32:14Z</time>
      </trkpt>
      <trkpt lat="47.27102" lon="-1.59963">
        <ele>49</ele>
        <time>2024-03-28T08:32:30Z</time>
      </trkpt>
      <trkpt lat="47.27119" lon="-1.59984">
        <ele>49</ele>
        <time>2024-03-28T08:32:47Z</time>
      </trkpt>
      <trkpt lat="47.27137" lon="-1.59999">
        <ele>49</ele>
        <time>2024-03-28T08:33:03Z</time>
      </trkpt>
      <trkpt lat="47.27156" lon="-1.60002">
        <ele>47.02</ele>
        <time>2024-03-28T08:33:19Z</time>
      </trkpt>
      <trkpt lat="47.27179" lon="-1.60003">
        <ele>47.91</ele>
        <time>2024-03-28T08:33:36Z</time>
      </trkpt>
      <trkpt lat="47.272" lon="-1.60008">
        <ele>48</ele>
        <time>2024-03-28T08:33:52Z</time>
      </trkpt>
      <trkpt lat="47.27222" lon="-1.60018">
        <ele>48</ele>
        <time>2024-03-28T08:34:08Z</time>
      </trkpt>
      <trkpt lat="47.27238" lon="-1.60043">
        <ele>48</ele>
        <time>2024-03-28T08:34:24Z</time>
      </trkpt>
      <trkpt lat="47.27261" lon="-1.60041">
        <ele>48</ele>
        <time>2024-03-28T08:34:42Z</time>
      </trkpt>
      <trkpt lat="47.27279" lon="-1.60034">
        <ele>48</ele>
        <time>2024-03-28T08:34:58Z</time>
      </trkpt>
      <trkpt lat="47.27298" lon="-1.60027">
        <ele>48</ele>
        <time>2024-03-28T08:35:10Z</time>
      </trkpt>
      <trkpt lat="47.27312" lon="-1.60049">
        <ele>48</ele>
        <time>2024-03-28T08:35:26Z</time>
      </trkpt>
      <trkpt lat="47.27317" lon="-1.60082">
        <ele>48</ele>
        <time>2024-03-28T08:35:43Z</time>
      </trkpt>
      <trkpt lat="47.27322" lon="-1.60109">
        <ele>45.08</ele>
        <time>2024-03-28T08:35:56Z</time>
      </trkpt>
      <trkpt lat="47.27323" lon="-1.60136">
        <ele>45</ele>
        <time>2024-03-28T08:36:08Z</time>
      </trkpt>
      <trkpt lat="47.27327" lon="-1.60169">
        <ele>45</ele>
        <time>2024-03-28T08:36:24Z</time>
      </trkpt>
      <trkpt lat="47.27333" lon="-1.60202">
        <ele>45</ele>
        <time>2024-03-28T08:36:40Z</time>
      </trkpt>
      <trkpt lat="47.27337" lon="-1.60233">
        <ele>46.98</ele>
        <time>2024-03-28T08:36:56Z</time>
      </trkpt>
      <trkpt lat="47.27341" lon="-1.60266">
        <ele>48.82</ele>
        <time>2024-03-28T08:37:12Z</time>
      </trkpt>
      <trkpt lat="47.27347" lon="-1.60295">
        <ele>49</ele>
        <time>2024-03-28T08:37:57Z</time>
      </trkpt>
      <trkpt lat="47.27355" lon="-1.60325">
        <ele>49</ele>
        <time>2024-03-28T08:38:13Z</time>
      </trkpt>
      <trkpt lat="47.27363" lon="-1.60355">
        <ele>53.87</ele>
        <time>2024-03-28T08:38:29Z</time>
      </trkpt>
      <trkpt lat="47.27366" lon="-1.60389">
        <ele>54</ele>
        <time>2024-03-28T08:38:45Z</time>
      </trkpt>
      <trkpt lat="47.27368" lon="-1.60422">
        <ele>52.6</ele>
        <time>2024-03-28T08:39:01Z</time>
      </trkpt>
      <trkpt lat="47.27363" lon="-1.60455">
        <ele>52</ele>
        <time>2024-03-28T08:39:17Z</time>
      </trkpt>
      <trkpt lat="47.27346" lon="-1.60465">
        <ele>52</ele>
        <time>2024-03-28T08:39:29Z</time>
      </trkpt>
      <trkpt lat="47.27325" lon="-1.6047">
        <ele>55.64</ele>
        <time>2024-03-28T08:39:45Z</time>
      </trkpt>
      <trkpt lat="47.27307" lon="-1.60475">
        <ele>55.99</ele>
        <time>2024-03-28T08:39:57Z</time>
      </trkpt>
      <trkpt lat="47.27287" lon="-1.60482">
        <ele>56</ele>
        <time>2024-03-28T08:40:13Z</time>
      </trkpt>
      <trkpt lat="47.27264" lon="-1.60489">
        <ele>56</ele>
        <time>2024-03-28T08:40:29Z</time>
      </trkpt>
      <trkpt lat="47.27244" lon="-1.60495">
        <ele>53.2</ele>
        <time>2024-03-28T08:40:45Z</time>
      </trkpt>
      <trkpt lat="47.27222" lon="-1.60502">
        <ele>51.31</ele>
        <time>2024-03-28T08:41:01Z</time>
      </trkpt>
      <trkpt lat="47.272" lon="-1.6051">
        <ele>51</ele>
        <time>2024-03-28T08:41:17Z</time>
      </trkpt>
      <trkpt lat="47.2718" lon="-1.60512">
        <ele>51</ele>
        <time>2024-03-28T08:41:33Z</time>
      </trkpt>
      <trkpt lat="47.27159" lon="-1.60519">
        <ele>47.36</ele>
        <time>2024-03-28T08:41:49Z</time>
      </trkpt>
      <trkpt lat="47.2714" lon="-1.60527">
        <ele>47.01</ele>
        <time>2024-03-28T08:42:01Z</time>
      </trkpt>
      <trkpt lat="47.27118" lon="-1.60534">
        <ele>47</ele>
        <time>2024-03-28T08:42:17Z</time>
      </trkpt>
      <trkpt lat="47.27097" lon="-1.60541">
        <ele>47</ele>
        <time>2024-03-28T08:42:33Z</time>
      </trkpt>
      <trkpt lat="47.27077" lon="-1.60548">
        <ele>47.91</ele>
        <time>2024-03-28T08:42:49Z</time>
      </trkpt>
      <trkpt lat="47.27055" lon="-1.60556">
        <ele>48</ele>
        <time>2024-03-28T08:43:05Z</time>
      </trkpt>
      <trkpt lat="47.27034" lon="-1.60564">
        <ele>48</ele>
        <time>2024-03-28T08:43:21Z</time>
      </trkpt>
      <trkpt lat="47.27016" lon="-1.60568">
        <ele>48</ele>
        <time>2024-03-28T08:43:33Z</time>
      </trkpt>
      <trkpt lat="47.26996" lon="-1.60575">
        <ele>48.7</ele>
        <time>2024-03-28T08:43:49Z</time>
      </trkpt>
      <trkpt lat="47.26974" lon="-1.60583">
        <ele>49</ele>
        <time>2024-03-28T08:44:05Z</time>
      </trkpt>
      <trkpt lat="47.26953" lon="-1.60592">
        <ele>51.98</ele>
        <time>2024-03-28T08:44:21Z</time>
      </trkpt>
      <trkpt lat="47.2693" lon="-1.60598">
        <ele>52</ele>
        <time>2024-03-28T08:44:37Z</time>
      </trkpt>
      <trkpt lat="47.26909" lon="-1.60606">
        <ele>52.91</ele>
        <time>2024-03-28T08:44:53Z</time>
      </trkpt>
      <trkpt lat="47.26891" lon="-1.60611">
        <ele>53</ele>
        <time>2024-03-28T08:45:05Z</time>
      </trkpt>
      <trkpt lat="47.26869" lon="-1.60614">
        <ele>53</ele>
        <time>2024-03-28T08:45:22Z</time>
      </trkpt>
      <trkpt lat="47.26849" lon="-1.60622">
        <ele>53</ele>
        <time>2024-03-28T08:45:38Z</time>
      </trkpt>
      <trkpt lat="47.26831" lon="-1.6062">
        <ele>54.4</ele>
        <time>2024-03-28T08:45:50Z</time>
      </trkpt>
      <trkpt lat="47.26828" lon="-1.6059">
        <ele>55</ele>
        <time>2024-03-28T08:46:06Z</time>
      </trkpt>
      <trkpt lat="47.26824" lon="-1.60562">
        <ele>54.01</ele>
        <time>2024-03-28T08:46:22Z</time>
      </trkpt>
      <trkpt lat="47.26818" lon="-1.60533">
        <ele>54</ele>
        <time>2024-03-28T08:46:34Z</time>
      </trkpt>
      <trkpt lat="47.26813" lon="-1.60505">
        <ele>54</ele>
        <time>2024-03-28T08:46:46Z</time>
      </trkpt>
      <trkpt lat="47.26806" lon="-1.60474">
        <ele>49.04</ele>
        <time>2024-03-28T08:47:02Z</time>
      </trkpt>
      <trkpt lat="47.26802" lon="-1.60443">
        <ele>49</ele>
        <time>2024-03-28T08:47:18Z</time>
      </trkpt>
      <trkpt lat="47.26798" lon="-1.60413">
        <ele>46.9</ele>
        <time>2024-03-28T08:47:34Z</time>
      </trkpt>
      <trkpt lat="47.26792" lon="-1.60383">
        <ele>46.01</ele>
        <time>2024-03-28T08:47:50Z</time>
      </trkpt>
      <trkpt lat="47.26787" lon="-1.60354">
        <ele>46</ele>
        <time>2024-03-28T08:48:06Z</time>
      </trkpt>
      <trkpt lat="47.26782" lon="-1.60328">
        <ele>44.6</ele>
        <time>2024-03-28T08:48:18Z</time>
      </trkpt>
      <trkpt lat="47.26775" lon="-1.60302">
        <ele>44.02</ele>
        <time>2024-03-28T08:48:30Z</time>
      </trkpt>
      <trkpt lat="47.26771" lon="-1.60272">
        <ele>44</ele>
        <time>2024-03-28T08:48:46Z</time>
      </trkpt>
      <trkpt lat="47.26764" lon="-1.60246">
        <ele>43.3</ele>
        <time>2024-03-28T08:48:58Z</time>
      </trkpt>
      <trkpt lat="47.26755" lon="-1.60222">
        <ele>43.01</ele>
        <time>2024-03-28T08:49:10Z</time>
      </trkpt>
      <trkpt lat="47.26745" lon="-1.60195">
        <ele>47.55</ele>
        <time>2024-03-28T08:49:26Z</time>
      </trkpt>
      <trkpt lat="47.26733" lon="-1.6017">
        <ele>48</ele>
        <time>2024-03-28T08:49:42Z</time>
      </trkpt>
      <trkpt lat="47.26716" lon="-1.60151">
        <ele>44.03</ele>
        <time>2024-03-28T08:49:58Z</time>
      </trkpt>
      <trkpt lat="47.26696" lon="-1.60142">
        <ele>44</ele>
        <time>2024-03-28T08:50:14Z</time>
      </trkpt>
      <trkpt lat="47.26679" lon="-1.60121">
        <ele>44</ele>
        <time>2024-03-28T08:50:30Z</time>
      </trkpt>
      <trkpt lat="47.26682" lon="-1.60089">
        <ele>44</ele>
        <time>2024-03-28T08:50:46Z</time>
      </trkpt>
      <trkpt lat="47.26667" lon="-1.60064">
        <ele>40.11</ele>
        <time>2024-03-28T08:51:02Z</time>
      </trkpt>
      <trkpt lat="47.26653" lon="-1.6004">
        <ele>39.01</ele>
        <time>2024-03-28T08:51:18Z</time>
      </trkpt>
      <trkpt lat="47.26638" lon="-1.60015">
        <ele>39</ele>
        <time>2024-03-28T08:51:34Z</time>
      </trkpt>
      <trkpt lat="47.26621" lon="-1.59994">
        <ele>39.7</ele>
        <time>2024-03-28T08:51:50Z</time>
      </trkpt>
      <trkpt lat="47.26603" lon="-1.59974">
        <ele>40</ele>
        <time>2024-03-28T08:52:06Z</time>
      </trkpt>
      <trkpt lat="47.26587" lon="-1.59952">
        <ele>40</ele>
        <time>2024-03-28T08:52:22Z</time>
      </trkpt>
      <trkpt lat="47.26568" lon="-1.59932">
        <ele>38.02</ele>
        <time>2024-03-28T08:52:38Z</time>
      </trkpt>
      <trkpt lat="47.26551" lon="-1.59912">
        <ele>38.91</ele>
        <time>2024-03-28T08:52:54Z</time>
      </trkpt>
      <trkpt lat="47.26537" lon="-1.59892">
        <ele>39</ele>
        <time>2024-03-28T08:53:06Z</time>
      </trkpt>
      <trkpt lat="47.26519" lon="-1.5987">
        <ele>39</ele>
        <time>2024-03-28T08:53:22Z</time>
      </trkpt>
      <trkpt lat="47.26503" lon="-1.59849">
        <ele>39</ele>
        <time>2024-03-28T08:53:38Z</time>
      </trkpt>
      <trkpt lat="47.2649" lon="-1.5983">
        <ele>32.74</ele>
        <time>2024-03-28T08:53:50Z</time>
      </trkpt>
      <trkpt lat="47.26473" lon="-1.59806">
        <ele>32.01</ele>
        <time>2024-03-28T08:54:06Z</time>
      </trkpt>
      <trkpt lat="47.26459" lon="-1.59784">
        <ele>32</ele>
        <time>2024-03-28T08:54:22Z</time>
      </trkpt>
      <trkpt lat="47.26449" lon="-1.59757">
        <ele>32</ele>
        <time>2024-03-28T08:54:38Z</time>
      </trkpt>
      <trkpt lat="47.26433" lon="-1.59735">
        <ele>29.02</ele>
        <time>2024-03-28T08:54:54Z</time>
      </trkpt>
      <trkpt lat="47.26412" lon="-1.59716">
        <ele>27.6</ele>
        <time>2024-03-28T08:55:06Z</time>
      </trkpt>
      <trkpt lat="47.26404" lon="-1.59686">
        <ele>27</ele>
        <time>2024-03-28T08:55:22Z</time>
      </trkpt>
      <trkpt lat="47.2638" lon="-1.59681">
        <ele>27</ele>
        <time>2024-03-28T08:55:38Z</time>
      </trkpt>
      <trkpt lat="47.26362" lon="-1.59687">
        <ele>27</ele>
        <time>2024-03-28T08:55:54Z</time>
      </trkpt>
      <trkpt lat="47.26349" lon="-1.59707">
        <ele>27</ele>
        <time>2024-03-28T08:56:06Z</time>
      </trkpt>
      <trkpt lat="47.26327" lon="-1.59723">
        <ele>24.27</ele>
        <time>2024-03-28T08:56:22Z</time>
      </trkpt>
      <trkpt lat="47.26308" lon="-1.59743">
        <ele>24</ele>
        <time>2024-03-28T08:56:38Z</time>
      </trkpt>
      <trkpt lat="47.26292" lon="-1.59766">
        <ele>25.95</ele>
        <time>2024-03-28T08:56:54Z</time>
      </trkpt>
      <trkpt lat="47.26275" lon="-1.59787">
        <ele>26</ele>
        <time>2024-03-28T08:57:10Z</time>
      </trkpt>
      <trkpt lat="47.26257" lon="-1.59801">
        <ele>26</ele>
        <time>2024-03-28T08:57:26Z</time>
      </trkpt>
      <trkpt lat="47.26244" lon="-1.59783">
        <ele>15.99</ele>
        <time>2024-03-28T08:57:38Z</time>
      </trkpt>
      <trkpt lat="47.26229" lon="-1.59757">
        <ele>15.01</ele>
        <time>2024-03-28T08:57:54Z</time>
      </trkpt>
      <trkpt lat="47.26212" lon="-1.59738">
        <ele>14.03</ele>
        <time>2024-03-28T08:58:10Z</time>
      </trkpt>
      <trkpt lat="47.2619" lon="-1.59731">
        <ele>14</ele>
        <time>2024-03-28T08:58:26Z</time>
      </trkpt>
      <trkpt lat="47.26167" lon="-1.59729">
        <ele>13.3</ele>
        <time>2024-03-28T08:58:42Z</time>
      </trkpt>
      <trkpt lat="47.26145" lon="-1.59722">
        <ele>13</ele>
        <time>2024-03-28T08:58:58Z</time>
      </trkpt>
      <trkpt lat="47.26121" lon="-1.59718">
        <ele>13</ele>
        <time>2024-03-28T08:59:14Z</time>
      </trkpt>
      <trkpt lat="47.26099" lon="-1.59713">
        <ele>13</ele>
        <time>2024-03-28T08:59:30Z</time>
      </trkpt>
      <trkpt lat="47.26077" lon="-1.59708">
        <ele>13.91</ele>
        <time>2024-03-28T08:59:46Z</time>
      </trkpt>
      <trkpt lat="47.2606" lon="-1.59696">
        <ele>14</ele>
        <time>2024-03-28T08:59:58Z</time>
      </trkpt>
      <trkpt lat="47.26041" lon="-1.59681">
        <ele>14</ele>
        <time>2024-03-28T09:00:14Z</time>
      </trkpt>
      <trkpt lat="47.26022" lon="-1.59665">
        <ele>14</ele>
        <time>2024-03-28T09:00:30Z</time>
      </trkpt>
      <trkpt lat="47.26003" lon="-1.59648">
        <ele>14</ele>
        <time>2024-03-28T09:00:46Z</time>
      </trkpt>
      <trkpt lat="47.25986" lon="-1.59629">
        <ele>16.98</ele>
        <time>2024-03-28T09:01:02Z</time>
      </trkpt>
      <trkpt lat="47.25975" lon="-1.59607">
        <ele>17</ele>
        <time>2024-03-28T09:01:22Z</time>
      </trkpt>
      <trkpt lat="47.2597" lon="-1.59573">
        <ele>17</ele>
        <time>2024-03-28T09:01:38Z</time>
      </trkpt>
      <trkpt lat="47.2597" lon="-1.59544">
        <ele>17</ele>
        <time>2024-03-28T09:01:50Z</time>
      </trkpt>
      <trkpt lat="47.25979" lon="-1.59514">
        <ele>17</ele>
        <time>2024-03-28T09:02:06Z</time>
      </trkpt>
      <trkpt lat="47.25974" lon="-1.59483">
        <ele>17</ele>
        <time>2024-03-28T09:02:22Z</time>
      </trkpt>
      <trkpt lat="47.25968" lon="-1.59453">
        <ele>17</ele>
        <time>2024-03-28T09:02:38Z</time>
      </trkpt>
      <trkpt lat="47.25974" lon="-1.59421">
        <ele>17</ele>
        <time>2024-03-28T09:02:54Z</time>
      </trkpt>
      <trkpt lat="47.25989" lon="-1.59406">
        <ele>16.03</ele>
        <time>2024-03-28T09:03:06Z</time>
      </trkpt>
      <trkpt lat="47.26003" lon="-1.59376">
        <ele>23.28</ele>
        <time>2024-03-28T09:03:22Z</time>
      </trkpt>
      <trkpt lat="47.26013" lon="-1.59351">
        <ele>23.98</ele>
        <time>2024-03-28T09:03:34Z</time>
      </trkpt>
      <trkpt lat="47.26022" lon="-1.59329">
        <ele>25.4</ele>
        <time>2024-03-28T09:03:50Z</time>
      </trkpt>
      <trkpt lat="47.26031" lon="-1.59298">
        <ele>26</ele>
        <time>2024-03-28T09:04:06Z</time>
      </trkpt>
      <trkpt lat="47.26023" lon="-1.59272">
        <ele>26</ele>
        <time>2024-03-28T09:04:22Z</time>
      </trkpt>
      <trkpt lat="47.26012" lon="-1.59251">
        <ele>26</ele>
        <time>2024-03-28T09:04:34Z</time>
      </trkpt>
      <trkpt lat="47.26003" lon="-1.59227">
        <ele>27.98</ele>
        <time>2024-03-28T09:04:50Z</time>
      </trkpt>
      <trkpt lat="47.25982" lon="-1.59222">
        <ele>20.06</ele>
        <time>2024-03-28T09:05:06Z</time>
      </trkpt>
      <trkpt lat="47.25961" lon="-1.59216">
        <ele>20</ele>
        <time>2024-03-28T09:05:22Z</time>
      </trkpt>
      <trkpt lat="47.2594" lon="-1.59206">
        <ele>20</ele>
        <time>2024-03-28T09:05:38Z</time>
      </trkpt>
      <trkpt lat="47.25921" lon="-1.59214">
        <ele>20</ele>
        <time>2024-03-28T09:05:54Z</time>
      </trkpt>
      <trkpt lat="47.2591" lon="-1.59236">
        <ele>19.03</ele>
        <time>2024-03-28T09:06:10Z</time>
      </trkpt>
      <trkpt lat="47.25899" lon="-1.59259">
        <ele>20.82</ele>
        <time>2024-03-28T09:06:26Z</time>
      </trkpt>
      <trkpt lat="47.25881" lon="-1.59273">
        <ele>21</ele>
        <time>2024-03-28T09:06:38Z</time>
      </trkpt>
      <trkpt lat="47.25864" lon="-1.59282">
        <ele>21</ele>
        <time>2024-03-28T09:06:50Z</time>
      </trkpt>
      <trkpt lat="47.25841" lon="-1.5928">
        <ele>21</ele>
        <time>2024-03-28T09:07:06Z</time>
      </trkpt>
      <trkpt lat="47.25825" lon="-1.59265">
        <ele>27.37</ele>
        <time>2024-03-28T09:07:18Z</time>
      </trkpt>
      <trkpt lat="47.25812" lon="-1.59246">
        <ele>23.78</ele>
        <time>2024-03-28T09:07:30Z</time>
      </trkpt>
      <trkpt lat="47.25796" lon="-1.59223">
        <ele>22.01</ele>
        <time>2024-03-28T09:07:46Z</time>
      </trkpt>
      <trkpt lat="47.25787" lon="-1.59193">
        <ele>22</ele>
        <time>2024-03-28T09:08:02Z</time>
      </trkpt>
      <trkpt lat="47.2577" lon="-1.59175">
        <ele>22</ele>
        <time>2024-03-28T09:08:22Z</time>
      </trkpt>
      <trkpt lat="47.25753" lon="-1.59164">
        <ele>22.7</ele>
        <time>2024-03-28T09:08:38Z</time>
      </trkpt>
      <trkpt lat="47.25734" lon="-1.59145">
        <ele>20.02</ele>
        <time>2024-03-28T09:08:55Z</time>
      </trkpt>
      <trkpt lat="47.25727" lon="-1.5912">
        <ele>20</ele>
        <time>2024-03-28T09:09:15Z</time>
      </trkpt>
      <trkpt lat="47.2573" lon="-1.59089">
        <ele>20</ele>
        <time>2024-03-28T09:09:35Z</time>
      </trkpt>
      <trkpt lat="47.25721" lon="-1.59065">
        <ele>19.01</ele>
        <time>2024-03-28T09:09:51Z</time>
      </trkpt>
      <trkpt lat="47.25701" lon="-1.59061">
        <ele>19</ele>
        <time>2024-03-28T09:10:07Z</time>
      </trkpt>
      <trkpt lat="47.25685" lon="-1.5904">
        <ele>19</ele>
        <time>2024-03-28T09:10:27Z</time>
      </trkpt>
      <trkpt lat="47.25673" lon="-1.59013">
        <ele>19</ele>
        <time>2024-03-28T09:10:43Z</time>
      </trkpt>
      <trkpt lat="47.25664" lon="-1.58984">
        <ele>16.27</ele>
        <time>2024-03-28T09:10:59Z</time>
      </trkpt>
      <trkpt lat="47.25655" lon="-1.58959">
        <ele>16.01</ele>
        <time>2024-03-28T09:11:11Z</time>
      </trkpt>
      <trkpt lat="47.25641" lon="-1.5894">
        <ele>16</ele>
        <time>2024-03-28T09:11:23Z</time>
      </trkpt>
      <trkpt lat="47.25648" lon="-1.58914">
        <ele>13.9</ele>
        <time>2024-03-28T09:11:39Z</time>
      </trkpt>
      <trkpt lat="47.25668" lon="-1.58903">
        <ele>19.31</ele>
        <time>2024-03-28T09:11:55Z</time>
      </trkpt>
      <trkpt lat="47.25666" lon="-1.58872">
        <ele>15.69</ele>
        <time>2024-03-28T09:12:15Z</time>
      </trkpt>
      <trkpt lat="47.25648" lon="-1.58859">
        <ele>13.02</ele>
        <time>2024-03-28T09:12:31Z</time>
      </trkpt>
      <trkpt lat="47.25635" lon="-1.58831">
        <ele>16.5</ele>
        <time>2024-03-28T09:12:51Z</time>
      </trkpt>
      <trkpt lat="47.25614" lon="-1.58831">
        <ele>17.99</ele>
        <time>2024-03-28T09:13:07Z</time>
      </trkpt>
      <trkpt lat="47.25595" lon="-1.58829">
        <ele>18</ele>
        <time>2024-03-28T09:13:23Z</time>
      </trkpt>
      <trkpt lat="47.25577" lon="-1.58832">
        <ele>12.54</ele>
        <time>2024-03-28T09:13:36Z</time>
      </trkpt>
      <trkpt lat="47.25558" lon="-1.58836">
        <ele>14.74</ele>
        <time>2024-03-28T09:13:48Z</time>
      </trkpt>
      <trkpt lat="47.25546" lon="-1.58856">
        <ele>15</ele>
        <time>2024-03-28T09:14:04Z</time>
      </trkpt>
      <trkpt lat="47.25538" lon="-1.58883">
        <ele>15</ele>
        <time>2024-03-28T09:14:20Z</time>
      </trkpt>
      <trkpt lat="47.25536" lon="-1.58909">
        <ele>15</ele>
        <time>2024-03-28T09:14:32Z</time>
      </trkpt>
      <trkpt lat="47.25531" lon="-1.5894">
        <ele>19.96</ele>
        <time>2024-03-28T09:14:48Z</time>
      </trkpt>
      <trkpt lat="47.25528" lon="-1.58973">
        <ele>20</ele>
        <time>2024-03-28T09:15:04Z</time>
      </trkpt>
      <trkpt lat="47.25517" lon="-1.58998">
        <ele>20</ele>
        <time>2024-03-28T09:15:20Z</time>
      </trkpt>
      <trkpt lat="47.25495" lon="-1.59014">
        <ele>25.84</ele>
        <time>2024-03-28T09:15:36Z</time>
      </trkpt>
      <trkpt lat="47.25479" lon="-1.59026">
        <ele>25.02</ele>
        <time>2024-03-28T09:15:48Z</time>
      </trkpt>
      <trkpt lat="47.25463" lon="-1.59046">
        <ele>25</ele>
        <time>2024-03-28T09:16:04Z</time>
      </trkpt>
      <trkpt lat="47.25447" lon="-1.59066">
        <ele>25</ele>
        <time>2024-03-28T09:16:20Z</time>
      </trkpt>
      <trkpt lat="47.25427" lon="-1.59081">
        <ele>25</ele>
        <time>2024-03-28T09:16:40Z</time>
      </trkpt>
      <trkpt lat="47.25409" lon="-1.59086">
        <ele>28.05</ele>
        <time>2024-03-28T09:16:52Z</time>
      </trkpt>
      <trkpt lat="47.25386" lon="-1.59085">
        <ele>28</ele>
        <time>2024-03-28T09:17:08Z</time>
      </trkpt>
      <trkpt lat="47.25366" lon="-1.59078">
        <ele>20.06</ele>
        <time>2024-03-28T09:17:24Z</time>
      </trkpt>
      <trkpt lat="47.2535" lon="-1.59057">
        <ele>20</ele>
        <time>2024-03-28T09:17:40Z</time>
      </trkpt>
      <trkpt lat="47.25346" lon="-1.59031">
        <ele>20</ele>
        <time>2024-03-28T09:17:52Z</time>
      </trkpt>
      <trkpt lat="47.25332" lon="-1.59012">
        <ele>23.5</ele>
        <time>2024-03-28T09:18:04Z</time>
      </trkpt>
      <trkpt lat="47.25317" lon="-1.58991">
        <ele>19.53</ele>
        <time>2024-03-28T09:18:20Z</time>
      </trkpt>
      <trkpt lat="47.253" lon="-1.58965">
        <ele>19</ele>
        <time>2024-03-28T09:18:40Z</time>
      </trkpt>
      <trkpt lat="47.25283" lon="-1.58946">
        <ele>19</ele>
        <time>2024-03-28T09:18:56Z</time>
      </trkpt>
      <trkpt lat="47.25268" lon="-1.58929">
        <ele>19</ele>
        <time>2024-03-28T09:19:12Z</time>
      </trkpt>
      <trkpt lat="47.25249" lon="-1.58913">
        <ele>20.4</ele>
        <time>2024-03-28T09:19:32Z</time>
      </trkpt>
      <trkpt lat="47.25232" lon="-1.58899">
        <ele>21</ele>
        <time>2024-03-28T09:19:48Z</time>
      </trkpt>
      <trkpt lat="47.25232" lon="-1.58873">
        <ele>21</ele>
        <time>2024-03-28T09:20:00Z</time>
      </trkpt>
      <trkpt lat="47.25239" lon="-1.5884">
        <ele>21</ele>
        <time>2024-03-28T09:20:16Z</time>
      </trkpt>
      <trkpt lat="47.25253" lon="-1.5882">
        <ele>20.18</ele>
        <time>2024-03-28T09:20:32Z</time>
      </trkpt>
      <trkpt lat="47.25247" lon="-1.58815">
        <ele>18.27</ele>
        <time>2024-03-28T09:31:45Z</time>
      </trkpt>
      <trkpt lat="47.25229" lon="-1.58809">
        <ele>18</ele>
        <time>2024-03-28T09:32:09Z</time>
      </trkpt>
      <trkpt lat="47.25218" lon="-1.58781">
        <ele>18</ele>
        <time>2024-03-28T09:32:29Z</time>
      </trkpt>
      <trkpt lat="47.252" lon="-1.58787">
        <ele>18</ele>
        <time>2024-03-28T09:33:33Z</time>
      </trkpt>
      <trkpt lat="47.25181" lon="-1.58802">
        <ele>18</ele>
        <time>2024-03-28T09:33:49Z</time>
      </trkpt>
      <trkpt lat="47.25164" lon="-1.58814">
        <ele>22.2</ele>
        <time>2024-03-28T09:34:05Z</time>
      </trkpt>
      <trkpt lat="47.25146" lon="-1.58825">
        <ele>23.99</ele>
        <time>2024-03-28T09:34:21Z</time>
      </trkpt>
      <trkpt lat="47.25127" lon="-1.58844">
        <ele>27.64</ele>
        <time>2024-03-28T09:34:41Z</time>
      </trkpt>
      <trkpt lat="47.2511" lon="-1.58862">
        <ele>28</ele>
        <time>2024-03-28T09:34:57Z</time>
      </trkpt>
      <trkpt lat="47.25092" lon="-1.58875">
        <ele>28</ele>
        <time>2024-03-28T09:35:17Z</time>
      </trkpt>
      <trkpt lat="47.25073" lon="-1.58889">
        <ele>33.84</ele>
        <time>2024-03-28T09:35:33Z</time>
      </trkpt>
      <trkpt lat="47.25063" lon="-1.58865">
        <ele>34</ele>
        <time>2024-03-28T09:35:49Z</time>
      </trkpt>
      <trkpt lat="47.25053" lon="-1.58832">
        <ele>34</ele>
        <time>2024-03-28T09:36:05Z</time>
      </trkpt>
      <trkpt lat="47.25043" lon="-1.58803">
        <ele>34</ele>
        <time>2024-03-28T09:36:21Z</time>
      </trkpt>
      <trkpt lat="47.25033" lon="-1.58773">
        <ele>34</ele>
        <time>2024-03-28T09:36:37Z</time>
      </trkpt>
      <trkpt lat="47.25024" lon="-1.58745">
        <ele>31.9</ele>
        <time>2024-03-28T09:36:53Z</time>
      </trkpt>
      <trkpt lat="47.25019" lon="-1.58712">
        <ele>31.01</ele>
        <time>2024-03-28T09:37:09Z</time>
      </trkpt>
      <trkpt lat="47.25015" lon="-1.58678">
        <ele>31</ele>
        <time>2024-03-28T09:37:25Z</time>
      </trkpt>
      <trkpt lat="47.25017" lon="-1.58644">
        <ele>28.02</ele>
        <time>2024-03-28T09:37:45Z</time>
      </trkpt>
      <trkpt lat="47.25015" lon="-1.58614">
        <ele>28</ele>
        <time>2024-03-28T09:38:01Z</time>
      </trkpt>
      <trkpt lat="47.25009" lon="-1.58582">
        <ele>27.3</ele>
        <time>2024-03-28T09:38:17Z</time>
      </trkpt>
      <trkpt lat="47.25006" lon="-1.5855">
        <ele>27</ele>
        <time>2024-03-28T09:38:33Z</time>
      </trkpt>
      <trkpt lat="47.24999" lon="-1.58523">
        <ele>31.9</ele>
        <time>2024-03-28T09:38:49Z</time>
      </trkpt>
      <trkpt lat="47.24998" lon="-1.58489">
        <ele>31.25</ele>
        <time>2024-03-28T09:39:05Z</time>
      </trkpt>
      <trkpt lat="47.24994" lon="-1.58459">
        <ele>31.01</ele>
        <time>2024-03-28T09:39:17Z</time>
      </trkpt>
      <trkpt lat="47.24992" lon="-1.58429">
        <ele>31</ele>
        <time>2024-03-28T09:39:33Z</time>
      </trkpt>
      <trkpt lat="47.24988" lon="-1.58393">
        <ele>27.03</ele>
        <time>2024-03-28T09:39:53Z</time>
      </trkpt>
      <trkpt lat="47.24983" lon="-1.58362">
        <ele>27</ele>
        <time>2024-03-28T09:40:09Z</time>
      </trkpt>
      <trkpt lat="47.2498" lon="-1.58334">
        <ele>27</ele>
        <time>2024-03-28T09:40:21Z</time>
      </trkpt>
      <trkpt lat="47.24978" lon="-1.58305">
        <ele>26.01</ele>
        <time>2024-03-28T09:40:37Z</time>
      </trkpt>
      <trkpt lat="47.24979" lon="-1.58275">
        <ele>26</ele>
        <time>2024-03-28T09:40:53Z</time>
      </trkpt>
      <trkpt lat="47.24972" lon="-1.58241">
        <ele>21.1</ele>
        <time>2024-03-28T09:41:09Z</time>
      </trkpt>
      <trkpt lat="47.24971" lon="-1.58209">
        <ele>19.02</ele>
        <time>2024-03-28T09:41:25Z</time>
      </trkpt>
      <trkpt lat="47.24968" lon="-1.58177">
        <ele>19</ele>
        <time>2024-03-28T09:41:41Z</time>
      </trkpt>
      <trkpt lat="47.24967" lon="-1.58147">
        <ele>15.11</ele>
        <time>2024-03-28T09:41:57Z</time>
      </trkpt>
      <trkpt lat="47.24961" lon="-1.58118">
        <ele>15</ele>
        <time>2024-03-28T09:42:17Z</time>
      </trkpt>
      <trkpt lat="47.2496" lon="-1.58085">
        <ele>15</ele>
        <time>2024-03-28T09:42:37Z</time>
      </trkpt>
      <trkpt lat="47.24955" lon="-1.58059">
        <ele>15</ele>
        <time>2024-03-28T09:42:49Z</time>
      </trkpt>
      <trkpt lat="47.24949" lon="-1.58031">
        <ele>15</ele>
        <time>2024-03-28T09:43:09Z</time>
      </trkpt>
      <trkpt lat="47.24938" lon="-1.58004">
        <ele>15</ele>
        <time>2024-03-28T09:43:21Z</time>
      </trkpt>
      <trkpt lat="47.24925" lon="-1.57978">
        <ele>15</ele>
        <time>2024-03-28T09:43:37Z</time>
      </trkpt>
      <trkpt lat="47.24912" lon="-1.57953">
        <ele>12.27</ele>
        <time>2024-03-28T09:43:53Z</time>
      </trkpt>
      <trkpt lat="47.24898" lon="-1.57936">
        <ele>12.01</ele>
        <time>2024-03-28T09:44:05Z</time>
      </trkpt>
      <trkpt lat="47.24881" lon="-1.5791">
        <ele>10.6</ele>
        <time>2024-03-28T09:44:25Z</time>
      </trkpt>
      <trkpt lat="47.24867" lon="-1.5789">
        <ele>10</ele>
        <time>2024-03-28T09:44:41Z</time>
      </trkpt>
      <trkpt lat="47.24852" lon="-1.57873">
        <ele>10</ele>
        <time>2024-03-28T09:44:57Z</time>
      </trkpt>
      <trkpt lat="47.24764" lon="-1.57739">
        <ele>10.1</ele>
      </trkpt>
      <trkpt lat="47.24763" lon="-1.57669">
        <ele>9.4</ele>
      </trkpt>
      <trkpt lat="47.24739" lon="-1.57592">
        <ele>13</ele>
      </trkpt>
      <trkpt lat="47.24711" lon="-1.57562">
        <ele>12.2</ele>
      </trkpt>
      <trkpt lat="47.24663" lon="-1.57552">
        <ele>8.3</ele>
      </trkpt>
      <trkpt lat="47.24642" lon="-1.57562">
        <ele>6.9</ele>
      </trkpt>
      <trkpt lat="47.24592" lon="-1.57514">
        <ele>13</ele>
        <time>2024-03-28T09:50:49Z</time>
      </trkpt>
      <trkpt lat="47.24578" lon="-1.57494">
        <ele>15.22</ele>
        <time>2024-03-28T09:51:05Z</time>
      </trkpt>
      <trkpt lat="47.24566" lon="-1.57459">
        <ele>15</ele>
        <time>2024-03-28T09:51:25Z</time>
      </trkpt>
      <trkpt lat="47.24558" lon="-1.57433">
        <ele>15</ele>
        <time>2024-03-28T09:51:37Z</time>
      </trkpt>
      <trkpt lat="47.24556" lon="-1.57405">
        <ele>18.64</ele>
        <time>2024-03-28T09:51:53Z</time>
      </trkpt>
      <trkpt lat="47.24545" lon="-1.57383">
        <ele>18.99</ele>
        <time>2024-03-28T09:52:05Z</time>
      </trkpt>
      <trkpt lat="47.24539" lon="-1.57351">
        <ele>19</ele>
        <time>2024-03-28T09:52:21Z</time>
      </trkpt>
      <trkpt lat="47.24535" lon="-1.57323">
        <ele>21.8</ele>
        <time>2024-03-28T09:52:33Z</time>
      </trkpt>
      <trkpt lat="47.24532" lon="-1.57295">
        <ele>22.97</ele>
        <time>2024-03-28T09:52:45Z</time>
      </trkpt>
      <trkpt lat="47.24532" lon="-1.57258">
        <ele>23</ele>
        <time>2024-03-28T09:53:01Z</time>
      </trkpt>
      <trkpt lat="47.24535" lon="-1.57227">
        <ele>23.99</ele>
        <time>2024-03-28T09:53:25Z</time>
      </trkpt>
      <trkpt lat="47.24537" lon="-1.57194">
        <ele>24</ele>
        <time>2024-03-28T09:53:41Z</time>
      </trkpt>
      <trkpt lat="47.2454" lon="-1.57168">
        <ele>24</ele>
        <time>2024-03-28T09:53:53Z</time>
      </trkpt>
      <trkpt lat="47.24531" lon="-1.57134">
        <ele>23</ele>
        <time>2024-03-28T09:54:13Z</time>
      </trkpt>
      <trkpt lat="47.24514" lon="-1.57117">
        <ele>23</ele>
        <time>2024-03-28T09:54:33Z</time>
      </trkpt>
      <trkpt lat="47.24498" lon="-1.57106">
        <ele>17.4</ele>
        <time>2024-03-28T09:54:45Z</time>
      </trkpt>
      <trkpt lat="47.24488" lon="-1.57082">
        <ele>15.76</ele>
        <time>2024-03-28T09:54:57Z</time>
      </trkpt>
      <trkpt lat="47.24475" lon="-1.57057">
        <ele>16</ele>
        <time>2024-03-28T09:55:13Z</time>
      </trkpt>
      <trkpt lat="47.24463" lon="-1.57033">
        <ele>16</ele>
        <time>2024-03-28T09:55:29Z</time>
      </trkpt>
      <trkpt lat="47.24446" lon="-1.57013">
        <ele>16</ele>
        <time>2024-03-28T09:55:45Z</time>
      </trkpt>
      <trkpt lat="47.24435" lon="-1.56992">
        <ele>18.73</ele>
        <time>2024-03-28T09:55:57Z</time>
      </trkpt>
      <trkpt lat="47.2442" lon="-1.56968">
        <ele>19</ele>
        <time>2024-03-28T09:56:13Z</time>
      </trkpt>
      <trkpt lat="47.24406" lon="-1.56942">
        <ele>13.16</ele>
        <time>2024-03-28T09:56:29Z</time>
      </trkpt>
      <trkpt lat="47.24391" lon="-1.56923">
        <ele>13</ele>
        <time>2024-03-28T09:56:45Z</time>
      </trkpt>
      <trkpt lat="47.24379" lon="-1.56897">
        <ele>12.01</ele>
        <time>2024-03-28T09:57:01Z</time>
      </trkpt>
      <trkpt lat="47.24368" lon="-1.56867">
        <ele>12</ele>
        <time>2024-03-28T09:57:17Z</time>
      </trkpt>
      <trkpt lat="47.24359" lon="-1.56839">
        <ele>12</ele>
        <time>2024-03-28T09:57:30Z</time>
      </trkpt>
      <trkpt lat="47.24355" lon="-1.56813">
        <ele>14.92</ele>
        <time>2024-03-28T09:57:43Z</time>
      </trkpt>
      <trkpt lat="47.24351" lon="-1.56786">
        <ele>15</ele>
        <time>2024-03-28T09:57:59Z</time>
      </trkpt>
      <trkpt lat="47.24347" lon="-1.56757">
        <ele>15</ele>
        <time>2024-03-28T09:58:12Z</time>
      </trkpt>
      <trkpt lat="47.24344" lon="-1.56724">
        <ele>15</ele>
        <time>2024-03-28T09:58:28Z</time>
      </trkpt>
      <trkpt lat="47.24343" lon="-1.56697">
        <ele>15</ele>
        <time>2024-03-28T09:58:44Z</time>
      </trkpt>
      <trkpt lat="47.24336" lon="-1.5667">
        <ele>15</ele>
        <time>2024-03-28T09:59:08Z</time>
      </trkpt>
      <trkpt lat="47.24335" lon="-1.56637">
        <ele>15</ele>
        <time>2024-03-28T09:59:28Z</time>
      </trkpt>
      <trkpt lat="47.24333" lon="-1.56608">
        <ele>22.43</ele>
        <time>2024-03-28T09:59:44Z</time>
      </trkpt>
      <trkpt lat="47.24331" lon="-1.56581">
        <ele>23.68</ele>
        <time>2024-03-28T09:59:56Z</time>
      </trkpt>
      <trkpt lat="47.24325" lon="-1.5655">
        <ele>24</ele>
        <time>2024-03-28T10:00:12Z</time>
      </trkpt>
      <trkpt lat="47.24331" lon="-1.56524">
        <ele>24</ele>
        <time>2024-03-28T10:00:28Z</time>
      </trkpt>
      <trkpt lat="47.24345" lon="-1.56498">
        <ele>16.22</ele>
        <time>2024-03-28T10:00:44Z</time>
      </trkpt>
      <trkpt lat="47.24348" lon="-1.56464">
        <ele>16</ele>
        <time>2024-03-28T10:01:04Z</time>
      </trkpt>
      <trkpt lat="47.24359" lon="-1.56434">
        <ele>16</ele>
        <time>2024-03-28T10:01:20Z</time>
      </trkpt>
      <trkpt lat="47.2437" lon="-1.5641">
        <ele>16.7</ele>
        <time>2024-03-28T10:01:32Z</time>
      </trkpt>
      <trkpt lat="47.24366" lon="-1.56377">
        <ele>17</ele>
        <time>2024-03-28T10:01:48Z</time>
      </trkpt>
      <trkpt lat="47.24368" lon="-1.56344">
        <ele>17</ele>
        <time>2024-03-28T10:02:04Z</time>
      </trkpt>
      <trkpt lat="47.24371" lon="-1.56312">
        <ele>16.03</ele>
        <time>2024-03-28T10:02:20Z</time>
      </trkpt>
      <trkpt lat="47.24376" lon="-1.56282">
        <ele>16</ele>
        <time>2024-03-28T10:02:36Z</time>
      </trkpt>
      <trkpt lat="47.2438" lon="-1.56254">
        <ele>16</ele>
        <time>2024-03-28T10:02:48Z</time>
      </trkpt>
      <trkpt lat="47.24373" lon="-1.56223">
        <ele>16</ele>
        <time>2024-03-28T10:03:04Z</time>
      </trkpt>
      <trkpt lat="47.24361" lon="-1.56198">
        <ele>16</ele>
        <time>2024-03-28T10:03:20Z</time>
      </trkpt>
      <trkpt lat="47.24347" lon="-1.56176">
        <ele>16</ele>
        <time>2024-03-28T10:03:36Z</time>
      </trkpt>
      <trkpt lat="47.24332" lon="-1.56155">
        <ele>16.98</ele>
        <time>2024-03-28T10:03:48Z</time>
      </trkpt>
      <trkpt lat="47.24315" lon="-1.56133">
        <ele>18</ele>
        <time>2024-03-28T10:04:08Z</time>
      </trkpt>
      <trkpt lat="47.243" lon="-1.56118">
        <ele>18</ele>
        <time>2024-03-28T10:04:20Z</time>
      </trkpt>
      <trkpt lat="47.24283" lon="-1.56101">
        <ele>18</ele>
        <time>2024-03-28T10:04:36Z</time>
      </trkpt>
      <trkpt lat="47.24273" lon="-1.56077">
        <ele>14.5</ele>
        <time>2024-03-28T10:04:48Z</time>
      </trkpt>
      <trkpt lat="47.24267" lon="-1.56046">
        <ele>13.01</ele>
        <time>2024-03-28T10:05:04Z</time>
      </trkpt>
      <trkpt lat="47.24266" lon="-1.56018">
        <ele>13</ele>
        <time>2024-03-28T10:05:24Z</time>
      </trkpt>
      <trkpt lat="47.24258" lon="-1.55991">
        <ele>15.1</ele>
        <time>2024-03-28T10:05:44Z</time>
      </trkpt>
      <trkpt lat="47.24254" lon="-1.55963">
        <ele>15.99</ele>
        <time>2024-03-28T10:06:00Z</time>
      </trkpt>
      <trkpt lat="47.24255" lon="-1.55931">
        <ele>16</ele>
        <time>2024-03-28T10:06:12Z</time>
      </trkpt>
      <trkpt lat="47.24251" lon="-1.55899">
        <ele>16.97</ele>
        <time>2024-03-28T10:06:28Z</time>
      </trkpt>
      <trkpt lat="47.24248" lon="-1.55871">
        <ele>10.63</ele>
        <time>2024-03-28T10:06:44Z</time>
      </trkpt>
      <trkpt lat="47.24245" lon="-1.55842">
        <ele>10.01</ele>
        <time>2024-03-28T10:07:00Z</time>
      </trkpt>
      <trkpt lat="47.24244" lon="-1.55815">
        <ele>10</ele>
        <time>2024-03-28T10:07:12Z</time>
      </trkpt>
      <trkpt lat="47.2424" lon="-1.55782">
        <ele>10</ele>
        <time>2024-03-28T10:07:28Z</time>
      </trkpt>
      <trkpt lat="47.24234" lon="-1.55754">
        <ele>10</ele>
        <time>2024-03-28T10:07:48Z</time>
      </trkpt>
      <trkpt lat="47.24227" lon="-1.55722">
        <ele>10</ele>
        <time>2024-03-28T10:08:04Z</time>
      </trkpt>
      <trkpt lat="47.24227" lon="-1.55687">
        <ele>10</ele>
        <time>2024-03-28T10:08:24Z</time>
      </trkpt>
      <trkpt lat="47.24221" lon="-1.55657">
        <ele>11.82</ele>
        <time>2024-03-28T10:08:40Z</time>
      </trkpt>
      <trkpt lat="47.24221" lon="-1.55624">
        <ele>12</ele>
        <time>2024-03-28T10:08:56Z</time>
      </trkpt>
      <trkpt lat="47.2422" lon="-1.55589">
        <ele>12</ele>
        <time>2024-03-28T10:09:12Z</time>
      </trkpt>
      <trkpt lat="47.2423" lon="-1.55564">
        <ele>11.01</ele>
        <time>2024-03-28T10:09:28Z</time>
      </trkpt>
      <trkpt lat="47.2424" lon="-1.55532">
        <ele>11</ele>
        <time>2024-03-28T10:09:44Z</time>
      </trkpt>
      <trkpt lat="47.24251" lon="-1.55509">
        <ele>10.3</ele>
        <time>2024-03-28T10:09:56Z</time>
      </trkpt>
      <trkpt lat="47.24246" lon="-1.55477">
        <ele>9.93</ele>
        <time>2024-03-28T10:10:20Z</time>
      </trkpt>
      <trkpt lat="47.24244" lon="-1.55446">
        <ele>10</ele>
        <time>2024-03-28T10:10:32Z</time>
      </trkpt>
      <trkpt lat="47.24246" lon="-1.55416">
        <ele>10</ele>
        <time>2024-03-28T10:10:44Z</time>
      </trkpt>
      <trkpt lat="47.24257" lon="-1.55387">
        <ele>7.08</ele>
        <time>2024-03-28T10:11:00Z</time>
      </trkpt>
      <trkpt lat="47.24278" lon="-1.55378">
        <ele>7</ele>
        <time>2024-03-28T10:11:12Z</time>
      </trkpt>
      <trkpt lat="47.243" lon="-1.55371">
        <ele>7</ele>
        <time>2024-03-28T10:11:28Z</time>
      </trkpt>
      <trkpt lat="47.243" lon="-1.55368">
        <ele>7</ele>
        <time>2024-03-28T10:12:16Z</time>
      </trkpt>
      <trkpt lat="47.24291" lon="-1.55338">
        <ele>7</ele>
        <time>2024-03-28T10:12:32Z</time>
      </trkpt>
      <trkpt lat="47.24289" lon="-1.55305">
        <ele>7.99</ele>
        <time>2024-03-28T10:12:48Z</time>
      </trkpt>
      <trkpt lat="47.24291" lon="-1.55271">
        <ele>8</ele>
        <time>2024-03-28T10:13:04Z</time>
      </trkpt>
      <trkpt lat="47.24294" lon="-1.5524">
        <ele>9.82</ele>
        <time>2024-03-28T10:13:20Z</time>
      </trkpt>
      <trkpt lat="47.24298" lon="-1.5521">
        <ele>10</ele>
        <time>2024-03-28T10:13:36Z</time>
      </trkpt>
      <trkpt lat="47.24301" lon="-1.55175">
        <ele>10</ele>
        <time>2024-03-28T10:13:52Z</time>
      </trkpt>
      <trkpt lat="47.24297" lon="-1.55148">
        <ele>11.95</ele>
        <time>2024-03-28T10:14:04Z</time>
      </trkpt>
      <trkpt lat="47.24294" lon="-1.55118">
        <ele>12</ele>
        <time>2024-03-28T10:14:20Z</time>
      </trkpt>
      <trkpt lat="47.24294" lon="-1.55089">
        <ele>12</ele>
        <time>2024-03-28T10:14:36Z</time>
      </trkpt>
      <trkpt lat="47.24292" lon="-1.5506">
        <ele>12.99</ele>
        <time>2024-03-28T10:14:52Z</time>
      </trkpt>
      <trkpt lat="47.24298" lon="-1.55033">
        <ele>13</ele>
        <time>2024-03-28T10:15:04Z</time>
      </trkpt>
      <trkpt lat="47.24299" lon="-1.54998">
        <ele>13</ele>
        <time>2024-03-28T10:15:20Z</time>
      </trkpt>
      <trkpt lat="47.24299" lon="-1.54969">
        <ele>13</ele>
        <time>2024-03-28T10:15:36Z</time>
      </trkpt>
      <trkpt lat="47.24295" lon="-1.54939">
        <ele>13</ele>
        <time>2024-03-28T10:15:56Z</time>
      </trkpt>
      <trkpt lat="47.2428" lon="-1.5492">
        <ele>13</ele>
        <time>2024-03-28T10:16:12Z</time>
      </trkpt>
      <trkpt lat="47.24272" lon="-1.54894">
        <ele>12.03</ele>
        <time>2024-03-28T10:16:24Z</time>
      </trkpt>
      <trkpt lat="47.24267" lon="-1.54859">
        <ele>12</ele>
        <time>2024-03-28T10:16:40Z</time>
      </trkpt>
      <trkpt lat="47.24266" lon="-1.54832">
        <ele>14.8</ele>
        <time>2024-03-28T10:16:56Z</time>
      </trkpt>
      <trkpt lat="47.24245" lon="-1.54826">
        <ele>11.45</ele>
        <time>2024-03-28T10:17:24Z</time>
      </trkpt>
      <trkpt lat="47.24226" lon="-1.54824">
        <ele>11</ele>
        <time>2024-03-28T10:17:44Z</time>
      </trkpt>
      <trkpt lat="47.24208" lon="-1.54803">
        <ele>11</ele>
        <time>2024-03-28T10:18:00Z</time>
      </trkpt>
      <trkpt lat="47.24191" lon="-1.54796">
        <ele>11</ele>
        <time>2024-03-28T10:18:13Z</time>
      </trkpt>
      <trkpt lat="47.24169" lon="-1.54793">
        <ele>11</ele>
        <time>2024-03-28T10:18:33Z</time>
      </trkpt>
      <trkpt lat="47.24148" lon="-1.54796">
        <ele>17.94</ele>
        <time>2024-03-28T10:18:49Z</time>
      </trkpt>
      <trkpt lat="47.24129" lon="-1.54801">
        <ele>18</ele>
        <time>2024-03-28T10:19:01Z</time>
      </trkpt>
      <trkpt lat="47.2411" lon="-1.54808">
        <ele>18</ele>
        <time>2024-03-28T10:19:13Z</time>
      </trkpt>
      <trkpt lat="47.24093" lon="-1.54826">
        <ele>18</ele>
        <time>2024-03-28T10:19:29Z</time>
      </trkpt>
      <trkpt lat="47.24077" lon="-1.54839">
        <ele>22.55</ele>
        <time>2024-03-28T10:19:41Z</time>
      </trkpt>
      <trkpt lat="47.2406" lon="-1.54858">
        <ele>23</ele>
        <time>2024-03-28T10:19:57Z</time>
      </trkpt>
      <trkpt lat="47.2404" lon="-1.54878">
        <ele>23</ele>
        <time>2024-03-28T10:20:17Z</time>
      </trkpt>
      <trkpt lat="47.24025" lon="-1.54903">
        <ele>23</ele>
        <time>2024-03-28T10:20:37Z</time>
      </trkpt>
      <trkpt lat="47.24014" lon="-1.5493">
        <ele>33.7</ele>
        <time>2024-03-28T10:20:57Z</time>
      </trkpt>
      <trkpt lat="47.23996" lon="-1.54947">
        <ele>27.7</ele>
        <time>2024-03-28T10:21:13Z</time>
      </trkpt>
      <trkpt lat="47.2398" lon="-1.54966">
        <ele>25.02</ele>
        <time>2024-03-28T10:21:29Z</time>
      </trkpt>
      <trkpt lat="47.23963" lon="-1.54984">
        <ele>25</ele>
        <time>2024-03-28T10:21:45Z</time>
      </trkpt>
      <trkpt lat="47.23947" lon="-1.54999">
        <ele>25</ele>
        <time>2024-03-28T10:21:57Z</time>
      </trkpt>
      <trkpt lat="47.23931" lon="-1.55011">
        <ele>27.98</ele>
        <time>2024-03-28T10:22:13Z</time>
      </trkpt>
      <trkpt lat="47.23911" lon="-1.55014">
        <ele>15.26</ele>
        <time>2024-03-28T10:22:33Z</time>
      </trkpt>
      <trkpt lat="47.23893" lon="-1.55011">
        <ele>14.03</ele>
        <time>2024-03-28T10:22:45Z</time>
      </trkpt>
      <trkpt lat="47.23873" lon="-1.55025">
        <ele>14</ele>
        <time>2024-03-28T10:23:37Z</time>
      </trkpt>
      <trkpt lat="47.23854" lon="-1.55047">
        <ele>14</ele>
        <time>2024-03-28T10:23:53Z</time>
      </trkpt>
      <trkpt lat="47.23837" lon="-1.5506">
        <ele>14</ele>
        <time>2024-03-28T10:24:09Z</time>
      </trkpt>
      <trkpt lat="47.23817" lon="-1.55063">
        <ele>11.02</ele>
        <time>2024-03-28T10:24:29Z</time>
      </trkpt>
      <trkpt lat="47.23799" lon="-1.55064">
        <ele>11</ele>
        <time>2024-03-28T10:24:45Z</time>
      </trkpt>
      <trkpt lat="47.23777" lon="-1.55061">
        <ele>11</ele>
        <time>2024-03-28T10:25:01Z</time>
      </trkpt>
      <trkpt lat="47.23759" lon="-1.55057">
        <ele>11</ele>
        <time>2024-03-28T10:25:13Z</time>
      </trkpt>
      <trkpt lat="47.23737" lon="-1.55058">
        <ele>9.05</ele>
        <time>2024-03-28T10:25:29Z</time>
      </trkpt>
      <trkpt lat="47.23718" lon="-1.55061">
        <ele>9</ele>
        <time>2024-03-28T10:25:41Z</time>
      </trkpt>
      <trkpt lat="47.237" lon="-1.55055">
        <ele>9</ele>
        <time>2024-03-28T10:25:57Z</time>
      </trkpt>
      <trkpt lat="47.23681" lon="-1.55055">
        <ele>9</ele>
        <time>2024-03-28T10:26:13Z</time>
      </trkpt>
      <trkpt lat="47.2366" lon="-1.5506">
        <ele>7.18</ele>
        <time>2024-03-28T10:26:25Z</time>
      </trkpt>
      <trkpt lat="47.23641" lon="-1.55056">
        <ele>7</ele>
        <time>2024-03-28T10:26:37Z</time>
      </trkpt>
      <trkpt lat="47.23622" lon="-1.55043">
        <ele>7</ele>
        <time>2024-03-28T10:26:53Z</time>
      </trkpt>
      <trkpt lat="47.23605" lon="-1.55023">
        <ele>7</ele>
        <time>2024-03-28T10:27:09Z</time>
      </trkpt>
      <trkpt lat="47.23591" lon="-1.55004">
        <ele>7</ele>
        <time>2024-03-28T10:27:25Z</time>
      </trkpt>
      <trkpt lat="47.23578" lon="-1.54975">
        <ele>9.6</ele>
        <time>2024-03-28T10:27:41Z</time>
      </trkpt>
      <trkpt lat="47.23568" lon="-1.54949">
        <ele>10</ele>
        <time>2024-03-28T10:27:57Z</time>
      </trkpt>
      <trkpt lat="47.23554" lon="-1.54927">
        <ele>10</ele>
        <time>2024-03-28T10:28:09Z</time>
      </trkpt>
      <trkpt lat="47.23538" lon="-1.54915">
        <ele>8.18</ele>
        <time>2024-03-28T10:28:21Z</time>
      </trkpt>
      <trkpt lat="47.2352" lon="-1.54909">
        <ele>8.02</ele>
        <time>2024-03-28T10:28:29Z</time>
      </trkpt>
      <trkpt lat="47.23535" lon="-1.54809">
        <ele>7</ele>
        <time>2024-03-28T10:52:50Z</time>
      </trkpt>
      <trkpt lat="47.23573" lon="-1.54828">
        <ele>7</ele>
        <time>2024-03-28T10:53:02Z</time>
      </trkpt>
      <trkpt lat="47.23593" lon="-1.54822">
        <ele>8.82</ele>
        <time>2024-03-28T10:53:18Z</time>
      </trkpt>
      <trkpt lat="47.2361" lon="-1.54832">
        <ele>9</ele>
        <time>2024-03-28T10:53:30Z</time>
      </trkpt>
      <trkpt lat="47.23628" lon="-1.54848">
        <ele>6.02</ele>
        <time>2024-03-28T10:53:46Z</time>
      </trkpt>
      <trkpt lat="47.23645" lon="-1.54866">
        <ele>6</ele>
        <time>2024-03-28T10:54:02Z</time>
      </trkpt>
      <trkpt lat="47.23661" lon="-1.54888">
        <ele>6</ele>
        <time>2024-03-28T10:54:18Z</time>
      </trkpt>
      <trkpt lat="47.23674" lon="-1.54911">
        <ele>7.95</ele>
        <time>2024-03-28T10:54:34Z</time>
      </trkpt>
      <trkpt lat="47.23694" lon="-1.54923">
        <ele>7.03</ele>
        <time>2024-03-28T10:54:50Z</time>
      </trkpt>
      <trkpt lat="47.23715" lon="-1.54934">
        <ele>7</ele>
        <time>2024-03-28T10:55:10Z</time>
      </trkpt>
      <trkpt lat="47.23736" lon="-1.54931">
        <ele>7</ele>
        <time>2024-03-28T10:55:30Z</time>
      </trkpt>
      <trkpt lat="47.23756" lon="-1.54915">
        <ele>9.1</ele>
        <time>2024-03-28T10:55:46Z</time>
      </trkpt>
      <trkpt lat="47.23771" lon="-1.54895">
        <ele>10</ele>
        <time>2024-03-28T10:56:06Z</time>
      </trkpt>
      <trkpt lat="47.23793" lon="-1.54895">
        <ele>10</ele>
        <time>2024-03-28T10:56:22Z</time>
      </trkpt>
      <trkpt lat="47.23808" lon="-1.54881">
        <ele>10</ele>
        <time>2024-03-28T10:56:34Z</time>
      </trkpt>
      <trkpt lat="47.23825" lon="-1.54866">
        <ele>10</ele>
        <time>2024-03-28T10:56:50Z</time>
      </trkpt>
      <trkpt lat="47.23841" lon="-1.54849">
        <ele>10</ele>
        <time>2024-03-28T10:57:06Z</time>
      </trkpt>
      <trkpt lat="47.23854" lon="-1.5483">
        <ele>8.6</ele>
        <time>2024-03-28T10:57:18Z</time>
      </trkpt>
      <trkpt lat="47.23873" lon="-1.54812">
        <ele>8</ele>
        <time>2024-03-28T10:57:38Z</time>
      </trkpt>
      <trkpt lat="47.23891" lon="-1.54818">
        <ele>8</ele>
        <time>2024-03-28T10:57:50Z</time>
      </trkpt>
      <trkpt lat="47.23907" lon="-1.54803">
        <ele>8</ele>
        <time>2024-03-28T10:58:02Z</time>
      </trkpt>
      <trkpt lat="47.23925" lon="-1.54788">
        <ele>5.27</ele>
        <time>2024-03-28T10:58:18Z</time>
      </trkpt>
      <trkpt lat="47.23945" lon="-1.54771">
        <ele>5</ele>
        <time>2024-03-28T10:58:38Z</time>
      </trkpt>
      <trkpt lat="47.23966" lon="-1.54755">
        <ele>5</ele>
        <time>2024-03-28T10:58:54Z</time>
      </trkpt>
      <trkpt lat="47.23981" lon="-1.5473">
        <ele>4</ele>
        <time>2024-03-28T10:59:14Z</time>
      </trkpt>
      <trkpt lat="47.24" lon="-1.54711">
        <ele>6.1</ele>
        <time>2024-03-28T10:59:30Z</time>
      </trkpt>
      <trkpt lat="47.24017" lon="-1.54693">
        <ele>6.99</ele>
        <time>2024-03-28T10:59:46Z</time>
      </trkpt>
      <trkpt lat="47.24019" lon="-1.54666">
        <ele>8.4</ele>
        <time>2024-03-28T11:00:02Z</time>
      </trkpt>
      <trkpt lat="47.24039" lon="-1.5465">
        <ele>9</ele>
        <time>2024-03-28T11:00:18Z</time>
      </trkpt>
      <trkpt lat="47.24062" lon="-1.54641">
        <ele>9</ele>
        <time>2024-03-28T11:00:34Z</time>
      </trkpt>
      <trkpt lat="47.2408" lon="-1.54633">
        <ele>9</ele>
        <time>2024-03-28T11:00:46Z</time>
      </trkpt>
      <trkpt lat="47.24099" lon="-1.54626">
        <ele>3.05</ele>
        <time>2024-03-28T11:01:02Z</time>
      </trkpt>
      <trkpt lat="47.24118" lon="-1.54618">
        <ele>3</ele>
        <time>2024-03-28T11:01:18Z</time>
      </trkpt>
      <trkpt lat="47.24137" lon="-1.54607">
        <ele>3</ele>
        <time>2024-03-28T11:01:30Z</time>
      </trkpt>
      <trkpt lat="47.24161" lon="-1.54594">
        <ele>3</ele>
        <time>2024-03-28T11:01:50Z</time>
      </trkpt>
      <trkpt lat="47.2418" lon="-1.54586">
        <ele>3</ele>
        <time>2024-03-28T11:02:06Z</time>
      </trkpt>
      <trkpt lat="47.24202" lon="-1.54575">
        <ele>4.95</ele>
        <time>2024-03-28T11:02:22Z</time>
      </trkpt>
      <trkpt lat="47.24187" lon="-1.5459">
        <ele>3.05</ele>
        <time>2024-03-28T11:02:42Z</time>
      </trkpt>
      <trkpt lat="47.2418" lon="-1.54585">
        <ele>3</ele>
        <time>2024-03-28T11:32:13Z</time>
      </trkpt>
      <trkpt lat="47.24198" lon="-1.54581">
        <ele>4.4</ele>
        <time>2024-03-28T11:32:38Z</time>
      </trkpt>
      <trkpt lat="47.24199" lon="-1.54548">
        <ele>5</ele>
        <time>2024-03-28T11:32:58Z</time>
      </trkpt>
      <trkpt lat="47.24194" lon="-1.54518">
        <ele>5</ele>
        <time>2024-03-28T11:33:14Z</time>
      </trkpt>
      <trkpt lat="47.24192" lon="-1.5449">
        <ele>5.91</ele>
        <time>2024-03-28T11:33:30Z</time>
      </trkpt>
      <trkpt lat="47.24204" lon="-1.5447">
        <ele>6</ele>
        <time>2024-03-28T11:33:42Z</time>
      </trkpt>
      <trkpt lat="47.24219" lon="-1.54444">
        <ele>6</ele>
        <time>2024-03-28T11:33:58Z</time>
      </trkpt>
      <trkpt lat="47.24226" lon="-1.54415">
        <ele>6.7</ele>
        <time>2024-03-28T11:34:14Z</time>
      </trkpt>
      <trkpt lat="47.24233" lon="-1.54383">
        <ele>7</ele>
        <time>2024-03-28T11:34:30Z</time>
      </trkpt>
      <trkpt lat="47.24238" lon="-1.54355">
        <ele>7</ele>
        <time>2024-03-28T11:34:42Z</time>
      </trkpt>
      <trkpt lat="47.24246" lon="-1.54328">
        <ele>9.1</ele>
        <time>2024-03-28T11:34:58Z</time>
      </trkpt>
      <trkpt lat="47.24266" lon="-1.54319">
        <ele>11.94</ele>
        <time>2024-03-28T11:35:14Z</time>
      </trkpt>
      <trkpt lat="47.24287" lon="-1.5431">
        <ele>12</ele>
        <time>2024-03-28T11:35:30Z</time>
      </trkpt>
      <trkpt lat="47.24304" lon="-1.54324">
        <ele>12</ele>
        <time>2024-03-28T11:35:42Z</time>
      </trkpt>
      <trkpt lat="47.24319" lon="-1.54349">
        <ele>10.05</ele>
        <time>2024-03-28T11:35:58Z</time>
      </trkpt>
      <trkpt lat="47.24336" lon="-1.54368">
        <ele>7.9</ele>
        <time>2024-03-28T11:36:10Z</time>
      </trkpt>
      <trkpt lat="47.24355" lon="-1.54365">
        <ele>7</ele>
        <time>2024-03-28T11:36:46Z</time>
      </trkpt>
      <trkpt lat="47.24365" lon="-1.54397">
        <ele>7</ele>
        <time>2024-03-28T11:37:26Z</time>
      </trkpt>
      <trkpt lat="47.24382" lon="-1.54411">
        <ele>7</ele>
        <time>2024-03-28T11:37:38Z</time>
      </trkpt>
      <trkpt lat="47.24403" lon="-1.54398">
        <ele>7</ele>
        <time>2024-03-28T11:37:58Z</time>
      </trkpt>
      <trkpt lat="47.24425" lon="-1.54394">
        <ele>5.6</ele>
        <time>2024-03-28T11:38:14Z</time>
      </trkpt>
      <trkpt lat="47.24445" lon="-1.54383">
        <ele>5</ele>
        <time>2024-03-28T11:38:30Z</time>
      </trkpt>
      <trkpt lat="47.24467" lon="-1.54374">
        <ele>5</ele>
        <time>2024-03-28T11:38:46Z</time>
      </trkpt>
      <trkpt lat="47.24488" lon="-1.54364">
        <ele>5</ele>
        <time>2024-03-28T11:39:02Z</time>
      </trkpt>
      <trkpt lat="47.24505" lon="-1.54353">
        <ele>5</ele>
        <time>2024-03-28T11:39:18Z</time>
      </trkpt>
      <trkpt lat="47.24526" lon="-1.54353">
        <ele>5</ele>
        <time>2024-03-28T11:39:38Z</time>
      </trkpt>
      <trkpt lat="47.24546" lon="-1.54337">
        <ele>5</ele>
        <time>2024-03-28T11:40:10Z</time>
      </trkpt>
      <trkpt lat="47.24569" lon="-1.54323">
        <ele>6.95</ele>
        <time>2024-03-28T11:40:26Z</time>
      </trkpt>
      <trkpt lat="47.24587" lon="-1.54306">
        <ele>7.7</ele>
        <time>2024-03-28T11:40:42Z</time>
      </trkpt>
      <trkpt lat="47.24609" lon="-1.54292">
        <ele>8</ele>
        <time>2024-03-28T11:40:58Z</time>
      </trkpt>
      <trkpt lat="47.24623" lon="-1.54273">
        <ele>8</ele>
        <time>2024-03-28T11:41:10Z</time>
      </trkpt>
      <trkpt lat="47.24642" lon="-1.54251">
        <ele>8</ele>
        <time>2024-03-28T11:41:26Z</time>
      </trkpt>
      <trkpt lat="47.24663" lon="-1.54236">
        <ele>8.99</ele>
        <time>2024-03-28T11:41:42Z</time>
      </trkpt>
      <trkpt lat="47.24681" lon="-1.54227">
        <ele>7.05</ele>
        <time>2024-03-28T11:41:54Z</time>
      </trkpt>
      <trkpt lat="47.24702" lon="-1.54218">
        <ele>7</ele>
        <time>2024-03-28T11:42:10Z</time>
      </trkpt>
      <trkpt lat="47.24718" lon="-1.54204">
        <ele>7</ele>
        <time>2024-03-28T11:42:22Z</time>
      </trkpt>
      <trkpt lat="47.24738" lon="-1.54194">
        <ele>7</ele>
        <time>2024-03-28T11:42:38Z</time>
      </trkpt>
      <trkpt lat="47.24757" lon="-1.54178">
        <ele>3.36</ele>
        <time>2024-03-28T11:42:54Z</time>
      </trkpt>
      <trkpt lat="47.24772" lon="-1.54155">
        <ele>3</ele>
        <time>2024-03-28T11:43:11Z</time>
      </trkpt>
      <trkpt lat="47.24786" lon="-1.54128">
        <ele>3</ele>
        <time>2024-03-28T11:43:27Z</time>
      </trkpt>
      <trkpt lat="47.24797" lon="-1.541">
        <ele>3</ele>
        <time>2024-03-28T11:43:43Z</time>
      </trkpt>
      <trkpt lat="47.24812" lon="-1.54086">
        <ele>3</ele>
        <time>2024-03-28T11:43:55Z</time>
      </trkpt>
      <trkpt lat="47.24819" lon="-1.5406">
        <ele>3.99</ele>
        <time>2024-03-28T11:44:11Z</time>
      </trkpt>
      <trkpt lat="47.24819" lon="-1.54028">
        <ele>4</ele>
        <time>2024-03-28T11:44:27Z</time>
      </trkpt>
      <trkpt lat="47.24836" lon="-1.54009">
        <ele>3.3</ele>
        <time>2024-03-28T11:44:43Z</time>
      </trkpt>
      <trkpt lat="47.24859" lon="-1.54001">
        <ele>3</ele>
        <time>2024-03-28T11:44:59Z</time>
      </trkpt>
      <trkpt lat="47.24871" lon="-1.53973">
        <ele>6.99</ele>
        <time>2024-03-28T11:45:19Z</time>
      </trkpt>
      <trkpt lat="47.24876" lon="-1.5394">
        <ele>7</ele>
        <time>2024-03-28T11:45:35Z</time>
      </trkpt>
      <trkpt lat="47.24893" lon="-1.53921">
        <ele>7</ele>
        <time>2024-03-28T11:45:51Z</time>
      </trkpt>
      <trkpt lat="47.24915" lon="-1.53938">
        <ele>7</ele>
        <time>2024-03-28T11:46:11Z</time>
      </trkpt>
      <trkpt lat="47.24935" lon="-1.53957">
        <ele>3.03</ele>
        <time>2024-03-28T11:46:27Z</time>
      </trkpt>
      <trkpt lat="47.24948" lon="-1.53977">
        <ele>3</ele>
        <time>2024-03-28T11:46:43Z</time>
      </trkpt>
      <trkpt lat="47.2497" lon="-1.53983">
        <ele>3</ele>
        <time>2024-03-28T11:46:59Z</time>
      </trkpt>
      <trkpt lat="47.24986" lon="-1.53958">
        <ele>3</ele>
        <time>2024-03-28T11:47:15Z</time>
      </trkpt>
      <trkpt lat="47.24999" lon="-1.53936">
        <ele>3</ele>
        <time>2024-03-28T11:47:31Z</time>
      </trkpt>
      <trkpt lat="47.25014" lon="-1.53913">
        <ele>3.7</ele>
        <time>2024-03-28T11:47:47Z</time>
      </trkpt>
      <trkpt lat="47.25029" lon="-1.53894">
        <ele>4</ele>
        <time>2024-03-28T11:48:03Z</time>
      </trkpt>
      <trkpt lat="47.25022" lon="-1.5387">
        <ele>4</ele>
        <time>2024-03-28T11:48:19Z</time>
      </trkpt>
      <trkpt lat="47.25015" lon="-1.53839">
        <ele>4</ele>
        <time>2024-03-28T11:48:35Z</time>
      </trkpt>
      <trkpt lat="47.25029" lon="-1.53816">
        <ele>12.76</ele>
        <time>2024-03-28T11:48:47Z</time>
      </trkpt>
      <trkpt lat="47.25048" lon="-1.53821">
        <ele>12.99</ele>
        <time>2024-03-28T11:48:59Z</time>
      </trkpt>
      <trkpt lat="47.25061" lon="-1.53846">
        <ele>4.24</ele>
        <time>2024-03-28T11:49:15Z</time>
      </trkpt>
      <trkpt lat="47.25072" lon="-1.5387">
        <ele>4</ele>
        <time>2024-03-28T11:49:31Z</time>
      </trkpt>
      <trkpt lat="47.25093" lon="-1.53877">
        <ele>4</ele>
        <time>2024-03-28T11:49:47Z</time>
      </trkpt>
      <trkpt lat="47.2511" lon="-1.53889">
        <ele>4</ele>
        <time>2024-03-28T11:50:03Z</time>
      </trkpt>
      <trkpt lat="47.25128" lon="-1.53886">
        <ele>4</ele>
        <time>2024-03-28T11:50:15Z</time>
      </trkpt>
      <trkpt lat="47.25144" lon="-1.53876">
        <ele>4</ele>
        <time>2024-03-28T11:50:27Z</time>
      </trkpt>
      <trkpt lat="47.25167" lon="-1.53869">
        <ele>4</ele>
        <time>2024-03-28T11:50:47Z</time>
      </trkpt>
      <trkpt lat="47.25186" lon="-1.53864">
        <ele>4</ele>
        <time>2024-03-28T11:51:03Z</time>
      </trkpt>
      <trkpt lat="47.25208" lon="-1.53862">
        <ele>4</ele>
        <time>2024-03-28T11:51:19Z</time>
      </trkpt>
      <trkpt lat="47.25228" lon="-1.53855">
        <ele>4</ele>
        <time>2024-03-28T11:51:35Z</time>
      </trkpt>
      <trkpt lat="47.25244" lon="-1.5384">
        <ele>4</ele>
        <time>2024-03-28T11:51:47Z</time>
      </trkpt>
      <trkpt lat="47.25259" lon="-1.5382">
        <ele>7.89</ele>
        <time>2024-03-28T11:52:03Z</time>
      </trkpt>
      <trkpt lat="47.25281" lon="-1.53812">
        <ele>8</ele>
        <time>2024-03-28T11:52:19Z</time>
      </trkpt>
      <trkpt lat="47.25304" lon="-1.53805">
        <ele>8</ele>
        <time>2024-03-28T11:52:35Z</time>
      </trkpt>
      <trkpt lat="47.25324" lon="-1.53806">
        <ele>8</ele>
        <time>2024-03-28T11:52:51Z</time>
      </trkpt>
      <trkpt lat="47.25346" lon="-1.53809">
        <ele>11.89</ele>
        <time>2024-03-28T11:53:07Z</time>
      </trkpt>
      <trkpt lat="47.25366" lon="-1.53808">
        <ele>12</ele>
        <time>2024-03-28T11:53:23Z</time>
      </trkpt>
      <trkpt lat="47.25389" lon="-1.53815">
        <ele>12</ele>
        <time>2024-03-28T11:53:39Z</time>
      </trkpt>
      <trkpt lat="47.25407" lon="-1.53819">
        <ele>12</ele>
        <time>2024-03-28T11:53:55Z</time>
      </trkpt>
      <trkpt lat="47.25426" lon="-1.53819">
        <ele>10.18</ele>
        <time>2024-03-28T11:54:11Z</time>
      </trkpt>
      <trkpt lat="47.25447" lon="-1.53823">
        <ele>10</ele>
        <time>2024-03-28T11:54:27Z</time>
      </trkpt>
      <trkpt lat="47.25469" lon="-1.53824">
        <ele>10</ele>
        <time>2024-03-28T11:54:43Z</time>
      </trkpt>
      <trkpt lat="47.25493" lon="-1.53827">
        <ele>10</ele>
        <time>2024-03-28T11:54:59Z</time>
      </trkpt>
      <trkpt lat="47.25513" lon="-1.53824">
        <ele>9.03</ele>
        <time>2024-03-28T11:55:15Z</time>
      </trkpt>
      <trkpt lat="47.25533" lon="-1.53822">
        <ele>9</ele>
        <time>2024-03-28T11:55:31Z</time>
      </trkpt>
      <trkpt lat="47.25554" lon="-1.53804">
        <ele>9</ele>
        <time>2024-03-28T11:55:52Z</time>
      </trkpt>
      <trkpt lat="47.2556" lon="-1.53775">
        <ele>9</ele>
        <time>2024-03-28T11:56:12Z</time>
      </trkpt>
      <trkpt lat="47.25551" lon="-1.53749">
        <ele>9.7</ele>
        <time>2024-03-28T11:56:28Z</time>
      </trkpt>
      <trkpt lat="47.25543" lon="-1.53723">
        <ele>10</ele>
        <time>2024-03-28T11:56:44Z</time>
      </trkpt>
      <trkpt lat="47.25536" lon="-1.53695">
        <ele>10</ele>
        <time>2024-03-28T11:57:00Z</time>
      </trkpt>
      <trkpt lat="47.25529" lon="-1.53667">
        <ele>10.7</ele>
        <time>2024-03-28T11:57:16Z</time>
      </trkpt>
      <trkpt lat="47.25522" lon="-1.53639">
        <ele>11</ele>
        <time>2024-03-28T11:57:32Z</time>
      </trkpt>
      <trkpt lat="47.25523" lon="-1.53672">
        <ele>10.3</ele>
        <time>2024-03-28T11:57:56Z</time>
      </trkpt>
      <trkpt lat="47.25528" lon="-1.53704">
        <ele>10</ele>
        <time>2024-03-28T11:58:12Z</time>
      </trkpt>
      <trkpt lat="47.25534" lon="-1.5373">
        <ele>10</ele>
        <time>2024-03-28T11:58:24Z</time>
      </trkpt>
      <trkpt lat="47.25543" lon="-1.53759">
        <ele>9.09</ele>
        <time>2024-03-28T11:58:40Z</time>
      </trkpt>
      <trkpt lat="47.25551" lon="-1.53788">
        <ele>9</ele>
        <time>2024-03-28T11:58:56Z</time>
      </trkpt>
      <trkpt lat="47.25559" lon="-1.53817">
        <ele>9</ele>
        <time>2024-03-28T11:59:12Z</time>
      </trkpt>
      <trkpt lat="47.25566" lon="-1.53842">
        <ele>6.27</ele>
        <time>2024-03-28T11:59:28Z</time>
      </trkpt>
      <trkpt lat="47.25576" lon="-1.53873">
        <ele>6</ele>
        <time>2024-03-28T11:59:44Z</time>
      </trkpt>
      <trkpt lat="47.25586" lon="-1.53901">
        <ele>6.7</ele>
        <time>2024-03-28T12:00:00Z</time>
      </trkpt>
      <trkpt lat="47.25592" lon="-1.53927">
        <ele>12.45</ele>
        <time>2024-03-28T12:00:12Z</time>
      </trkpt>
      <trkpt lat="47.25598" lon="-1.53959">
        <ele>13</ele>
        <time>2024-03-28T12:00:28Z</time>
      </trkpt>
      <trkpt lat="47.25608" lon="-1.53987">
        <ele>13</ele>
        <time>2024-03-28T12:00:44Z</time>
      </trkpt>
      <trkpt lat="47.25616" lon="-1.54014">
        <ele>13.97</ele>
        <time>2024-03-28T12:01:00Z</time>
      </trkpt>
      <trkpt lat="47.25624" lon="-1.54043">
        <ele>14</ele>
        <time>2024-03-28T12:01:16Z</time>
      </trkpt>
      <trkpt lat="47.25619" lon="-1.54015">
        <ele>14</ele>
        <time>2024-03-28T12:01:32Z</time>
      </trkpt>
      <trkpt lat="47.25601" lon="-1.54009">
        <ele>14</ele>
        <time>2024-03-28T12:01:48Z</time>
      </trkpt>
      <trkpt lat="47.25582" lon="-1.54017">
        <ele>17.5</ele>
        <time>2024-03-28T12:02:00Z</time>
      </trkpt>
      <trkpt lat="47.25592" lon="-1.53992">
        <ele>13.16</ele>
        <time>2024-03-28T12:02:40Z</time>
      </trkpt>
      <trkpt lat="47.25612" lon="-1.53975">
        <ele>13</ele>
        <time>2024-03-28T12:02:56Z</time>
      </trkpt>
      <trkpt lat="47.25624" lon="-1.53948">
        <ele>13</ele>
        <time>2024-03-28T12:03:16Z</time>
      </trkpt>
      <trkpt lat="47.25649" lon="-1.53937">
        <ele>13</ele>
        <time>2024-03-28T12:03:32Z</time>
      </trkpt>
      <trkpt lat="47.25671" lon="-1.5393">
        <ele>12.3</ele>
        <time>2024-03-28T12:03:48Z</time>
      </trkpt>
      <trkpt lat="47.25689" lon="-1.53918">
        <ele>12</ele>
        <time>2024-03-28T12:04:04Z</time>
      </trkpt>
      <trkpt lat="47.25708" lon="-1.53911">
        <ele>7.14</ele>
        <time>2024-03-28T12:04:16Z</time>
      </trkpt>
      <trkpt lat="47.25726" lon="-1.5392">
        <ele>10.5</ele>
        <time>2024-03-28T12:04:36Z</time>
      </trkpt>
      <trkpt lat="47.2574" lon="-1.53938">
        <ele>11.96</ele>
        <time>2024-03-28T12:04:48Z</time>
      </trkpt>
      <trkpt lat="47.25754" lon="-1.53956">
        <ele>12.7</ele>
        <time>2024-03-28T12:05:04Z</time>
      </trkpt>
      <trkpt lat="47.25772" lon="-1.5396">
        <ele>13</ele>
        <time>2024-03-28T12:05:20Z</time>
      </trkpt>
      <trkpt lat="47.2579" lon="-1.53953">
        <ele>13</ele>
        <time>2024-03-28T12:05:32Z</time>
      </trkpt>
      <trkpt lat="47.25811" lon="-1.53946">
        <ele>13</ele>
        <time>2024-03-28T12:05:48Z</time>
      </trkpt>
      <trkpt lat="47.25833" lon="-1.53943">
        <ele>13</ele>
        <time>2024-03-28T12:06:04Z</time>
      </trkpt>
      <trkpt lat="47.2585" lon="-1.53932">
        <ele>14.98</ele>
        <time>2024-03-28T12:06:20Z</time>
      </trkpt>
      <trkpt lat="47.2587" lon="-1.5392">
        <ele>15</ele>
        <time>2024-03-28T12:06:36Z</time>
      </trkpt>
      <trkpt lat="47.2589" lon="-1.53908">
        <ele>10.13</ele>
        <time>2024-03-28T12:06:52Z</time>
      </trkpt>
      <trkpt lat="47.2591" lon="-1.53894">
        <ele>10</ele>
        <time>2024-03-28T12:07:08Z</time>
      </trkpt>
      <trkpt lat="47.25929" lon="-1.53885">
        <ele>11.95</ele>
        <time>2024-03-28T12:07:24Z</time>
      </trkpt>
      <trkpt lat="47.25946" lon="-1.53871">
        <ele>12</ele>
        <time>2024-03-28T12:07:40Z</time>
      </trkpt>
      <trkpt lat="47.25964" lon="-1.53856">
        <ele>12</ele>
        <time>2024-03-28T12:07:56Z</time>
      </trkpt>
      <trkpt lat="47.25985" lon="-1.53848">
        <ele>12</ele>
        <time>2024-03-28T12:08:12Z</time>
      </trkpt>
      <trkpt lat="47.26006" lon="-1.53838">
        <ele>13.82</ele>
        <time>2024-03-28T12:08:28Z</time>
      </trkpt>
      <trkpt lat="47.26027" lon="-1.53837">
        <ele>14</ele>
        <time>2024-03-28T12:08:44Z</time>
      </trkpt>
      <trkpt lat="47.26048" lon="-1.5384">
        <ele>14</ele>
        <time>2024-03-28T12:09:00Z</time>
      </trkpt>
      <trkpt lat="47.26066" lon="-1.5384">
        <ele>14</ele>
        <time>2024-03-28T12:09:16Z</time>
      </trkpt>
      <trkpt lat="47.26087" lon="-1.53838">
        <ele>18.2</ele>
        <time>2024-03-28T12:09:32Z</time>
      </trkpt>
      <trkpt lat="47.26107" lon="-1.53832">
        <ele>12.29</ele>
        <time>2024-03-28T12:09:48Z</time>
      </trkpt>
      <trkpt lat="47.26126" lon="-1.53832">
        <ele>9.03</ele>
        <time>2024-03-28T12:10:04Z</time>
      </trkpt>
      <trkpt lat="47.26145" lon="-1.53831">
        <ele>9</ele>
        <time>2024-03-28T12:10:20Z</time>
      </trkpt>
      <trkpt lat="47.26166" lon="-1.53838">
        <ele>19.7</ele>
        <time>2024-03-28T12:10:36Z</time>
      </trkpt>
      <trkpt lat="47.26187" lon="-1.53845">
        <ele>13.05</ele>
        <time>2024-03-28T12:10:52Z</time>
      </trkpt>
      <trkpt lat="47.26205" lon="-1.53854">
        <ele>13</ele>
        <time>2024-03-28T12:11:08Z</time>
      </trkpt>
      <trkpt lat="47.26221" lon="-1.53871">
        <ele>13</ele>
        <time>2024-03-28T12:11:24Z</time>
      </trkpt>
      <trkpt lat="47.2624" lon="-1.53889">
        <ele>13</ele>
        <time>2024-03-28T12:11:40Z</time>
      </trkpt>
      <trkpt lat="47.26256" lon="-1.539">
        <ele>6.63</ele>
        <time>2024-03-28T12:11:56Z</time>
      </trkpt>
      <trkpt lat="47.26272" lon="-1.53917">
        <ele>8.11</ele>
        <time>2024-03-28T12:12:12Z</time>
      </trkpt>
      <trkpt lat="47.26289" lon="-1.53932">
        <ele>8.98</ele>
        <time>2024-03-28T12:12:24Z</time>
      </trkpt>
      <trkpt lat="47.26306" lon="-1.53948">
        <ele>9</ele>
        <time>2024-03-28T12:12:41Z</time>
      </trkpt>
      <trkpt lat="47.26322" lon="-1.53963">
        <ele>9</ele>
        <time>2024-03-28T12:12:57Z</time>
      </trkpt>
      <trkpt lat="47.26342" lon="-1.53973">
        <ele>6.27</ele>
        <time>2024-03-28T12:13:13Z</time>
      </trkpt>
      <trkpt lat="47.26366" lon="-1.53981">
        <ele>6</ele>
        <time>2024-03-28T12:13:33Z</time>
      </trkpt>
      <trkpt lat="47.26388" lon="-1.53987">
        <ele>6</ele>
        <time>2024-03-28T12:13:49Z</time>
      </trkpt>
      <trkpt lat="47.2641" lon="-1.53991">
        <ele>6</ele>
        <time>2024-03-28T12:14:05Z</time>
      </trkpt>
      <trkpt lat="47.2643" lon="-1.53994">
        <ele>6</ele>
        <time>2024-03-28T12:14:21Z</time>
      </trkpt>
      <trkpt lat="47.26452" lon="-1.53997">
        <ele>6</ele>
        <time>2024-03-28T12:14:37Z</time>
      </trkpt>
      <trkpt lat="47.26471" lon="-1.53987">
        <ele>6</ele>
        <time>2024-03-28T12:14:53Z</time>
      </trkpt>
      <trkpt lat="47.2649" lon="-1.53986">
        <ele>6</ele>
        <time>2024-03-28T12:15:09Z</time>
      </trkpt>
      <trkpt lat="47.26503" lon="-1.5401">
        <ele>13.14</ele>
        <time>2024-03-28T12:15:25Z</time>
      </trkpt>
      <trkpt lat="47.26512" lon="-1.54035">
        <ele>14.98</ele>
        <time>2024-03-28T12:15:41Z</time>
      </trkpt>
      <trkpt lat="47.26525" lon="-1.54055">
        <ele>15</ele>
        <time>2024-03-28T12:15:57Z</time>
      </trkpt>
      <trkpt lat="47.26535" lon="-1.54079">
        <ele>15</ele>
        <time>2024-03-28T12:16:13Z</time>
      </trkpt>
      <trkpt lat="47.26545" lon="-1.54106">
        <ele>15.99</ele>
        <time>2024-03-28T12:16:29Z</time>
      </trkpt>
      <trkpt lat="47.26557" lon="-1.54128">
        <ele>16</ele>
        <time>2024-03-28T12:16:45Z</time>
      </trkpt>
      <trkpt lat="47.26567" lon="-1.54153">
        <ele>16</ele>
        <time>2024-03-28T12:17:01Z</time>
      </trkpt>
      <trkpt lat="47.26579" lon="-1.54181">
        <ele>16.97</ele>
        <time>2024-03-28T12:17:21Z</time>
      </trkpt>
      <trkpt lat="47.26589" lon="-1.54203">
        <ele>20.89</ele>
        <time>2024-03-28T12:17:37Z</time>
      </trkpt>
      <trkpt lat="47.26603" lon="-1.54227">
        <ele>21</ele>
        <time>2024-03-28T12:17:53Z</time>
      </trkpt>
      <trkpt lat="47.26615" lon="-1.5425">
        <ele>21</ele>
        <time>2024-03-28T12:18:09Z</time>
      </trkpt>
      <trkpt lat="47.26626" lon="-1.54274">
        <ele>21</ele>
        <time>2024-03-28T12:18:25Z</time>
      </trkpt>
      <trkpt lat="47.26634" lon="-1.54303">
        <ele>21</ele>
        <time>2024-03-28T12:18:41Z</time>
      </trkpt>
      <trkpt lat="47.26637" lon="-1.54331">
        <ele>21</ele>
        <time>2024-03-28T12:18:57Z</time>
      </trkpt>
      <trkpt lat="47.26641" lon="-1.54358">
        <ele>22.98</ele>
        <time>2024-03-28T12:19:13Z</time>
      </trkpt>
      <trkpt lat="47.26625" lon="-1.54382">
        <ele>23</ele>
        <time>2024-03-28T12:19:29Z</time>
      </trkpt>
      <trkpt lat="47.26605" lon="-1.54381">
        <ele>23</ele>
        <time>2024-03-28T12:19:45Z</time>
      </trkpt>
      <trkpt lat="47.26586" lon="-1.54386">
        <ele>23</ele>
        <time>2024-03-28T12:20:01Z</time>
      </trkpt>
      <trkpt lat="47.26584" lon="-1.54415">
        <ele>22.7</ele>
        <time>2024-03-28T12:20:21Z</time>
      </trkpt>
      <trkpt lat="47.26589" lon="-1.54443">
        <ele>24.98</ele>
        <time>2024-03-28T12:20:37Z</time>
      </trkpt>
      <trkpt lat="47.26602" lon="-1.54463">
        <ele>25</ele>
        <time>2024-03-28T12:20:53Z</time>
      </trkpt>
      <trkpt lat="47.26621" lon="-1.54458">
        <ele>25</ele>
        <time>2024-03-28T12:21:09Z</time>
      </trkpt>
      <trkpt lat="47.26641" lon="-1.54456">
        <ele>25</ele>
        <time>2024-03-28T12:21:25Z</time>
      </trkpt>
      <trkpt lat="47.26662" lon="-1.54452">
        <ele>25</ele>
        <time>2024-03-28T12:21:41Z</time>
      </trkpt>
      <trkpt lat="47.26681" lon="-1.54452">
        <ele>27.98</ele>
        <time>2024-03-28T12:21:57Z</time>
      </trkpt>
      <trkpt lat="47.26703" lon="-1.54457">
        <ele>28</ele>
        <time>2024-03-28T12:22:17Z</time>
      </trkpt>
      <trkpt lat="47.26725" lon="-1.54462">
        <ele>28</ele>
        <time>2024-03-28T12:22:33Z</time>
      </trkpt>
      <trkpt lat="47.26744" lon="-1.54473">
        <ele>28</ele>
        <time>2024-03-28T12:22:49Z</time>
      </trkpt>
      <trkpt lat="47.26758" lon="-1.54493">
        <ele>28</ele>
        <time>2024-03-28T12:23:05Z</time>
      </trkpt>
      <trkpt lat="47.2678" lon="-1.54502">
        <ele>28.7</ele>
        <time>2024-03-28T12:23:25Z</time>
      </trkpt>
      <trkpt lat="47.26797" lon="-1.54517">
        <ele>29</ele>
        <time>2024-03-28T12:23:41Z</time>
      </trkpt>
      <trkpt lat="47.26812" lon="-1.54536">
        <ele>29</ele>
        <time>2024-03-28T12:23:57Z</time>
      </trkpt>
      <trkpt lat="47.26827" lon="-1.54551">
        <ele>29</ele>
        <time>2024-03-28T12:24:13Z</time>
      </trkpt>
      <trkpt lat="47.26847" lon="-1.54558">
        <ele>31.98</ele>
        <time>2024-03-28T12:24:33Z</time>
      </trkpt>
      <trkpt lat="47.26865" lon="-1.5455">
        <ele>32</ele>
        <time>2024-03-28T12:24:49Z</time>
      </trkpt>
      <trkpt lat="47.26883" lon="-1.54537">
        <ele>32</ele>
        <time>2024-03-28T12:25:05Z</time>
      </trkpt>
      <trkpt lat="47.26897" lon="-1.54513">
        <ele>32</ele>
        <time>2024-03-28T12:25:21Z</time>
      </trkpt>
      <trkpt lat="47.26902" lon="-1.54485">
        <ele>28.11</ele>
        <time>2024-03-28T12:25:37Z</time>
      </trkpt>
    </trkseg>
  </trk>
</gpx>